<?xml version="1.0" encoding="UTF-8" standalone="no" ?><gpx xmlns="http://www.topografix.com/GPX/1/1" xmlns:gpxx="http://www.garmin.com/xmlschemas/GpxExtensions/v3" xmlns:wptx1="http://www.garmin.com/xmlschemas/WaypointExtension/v1" xmlns:gpxtpx="http://www.garmin.com/xmlschemas/TrackPointExtension/v1" creator="GuideVTT.com" version="1.1" xmlns:xsi="http://www.w3.org/2001/XMLSchema-instance" xsi:schemaLocation="http://www.topografix.com/GPX/1/1 http://www.topografix.com/GPX/1/1/gpx.xsd http://www.garmin.com/xmlschemas/GpxExtensions/v3 http://www8.garmin.com/xmlschemas/GpxExtensionsv3.xsd http://www.garmin.com/xmlschemas/WaypointExtension/v1 http://www8.garmin.com/xmlschemas/WaypointExtensionv1.xsd http://www.garmin.com/xmlschemas/TrackPointExtension/v1 http://www.garmin.com/xmlschemas/TrackPointExtensionv1.xsd">
<metadata><link href="http://www.garmin.com"><text>Garmin International</text></link><time>2013-06-22T15:13:50Z</time></metadata>
<trk><name>gollion-chatel_ii.gpx</name><extensions><gpxx:TrackExtension><gpxx:DisplayColor>Cyan</gpxx:DisplayColor></gpxx:TrackExtension></extensions><trkseg>
<trkpt lat="46.58472000" lon="6.50589400"><ele>478.869995</ele><time>2008-06-28T16:05:30Z</time></trkpt>
<trkpt lat="46.58472000" lon="6.50589400"><ele>482.23999</ele><time>2008-06-28T16:06:04Z</time></trkpt>
<trkpt lat="46.58472000" lon="6.50589400"><ele>483.679993</ele><time>2008-06-28T16:06:13Z</time></trkpt>
<trkpt lat="46.58475600" lon="6.50522700"><ele>487.049988</ele><time>2008-06-28T16:06:08Z</time></trkpt>
<trkpt lat="46.58477000" lon="6.50521600"><ele>490.890015</ele><time>2008-06-28T16:06:11Z</time></trkpt>
<trkpt lat="46.58482100" lon="6.50516300"><ele>494.26001</ele><time>2008-06-28T16:06:14Z</time></trkpt>
<trkpt lat="46.58484400" lon="6.50514600"><ele>494.73999</ele><time>2008-06-28T16:06:15Z</time></trkpt>
<trkpt lat="46.58548300" lon="6.50460400"><ele>496.179993</ele><time>2008-06-28T16:06:29Z</time></trkpt>
<trkpt lat="46.58571800" lon="6.50444000"><ele>530.789978</ele><time>2008-06-28T16:06:38Z</time></trkpt>
<trkpt lat="46.58573200" lon="6.50443300"><ele>530.299988</ele><time>2008-06-28T16:06:39Z</time></trkpt>
<trkpt lat="46.58576900" lon="6.50441100"><ele>532.22998</ele><time>2008-06-28T16:06:41Z</time></trkpt>
<trkpt lat="46.58608700" lon="6.50439700"><ele>533.669983</ele><time>2008-06-28T16:06:57Z</time></trkpt>
<trkpt lat="46.58641600" lon="6.50447600"><ele>536.070007</ele><time>2008-06-28T16:07:12Z</time></trkpt>
<trkpt lat="46.58691000" lon="6.50453400"><ele>538.47998</ele><time>2008-06-28T16:07:28Z</time></trkpt>
<trkpt lat="46.58739800" lon="6.50468100"><ele>540.880005</ele><time>2008-06-28T16:07:44Z</time></trkpt>
<trkpt lat="46.58776300" lon="6.50448600"><ele>542.799988</ele><time>2008-06-28T16:07:57Z</time></trkpt>
<trkpt lat="46.58822500" lon="6.50430600"><ele>545.200012</ele><time>2008-06-28T16:08:12Z</time></trkpt>
<trkpt lat="46.58889000" lon="6.50432400"><ele>547.609985</ele><time>2008-06-28T16:08:31Z</time></trkpt>
<trkpt lat="46.58952200" lon="6.50402900"><ele>550.969971</ele><time>2008-06-28T16:08:50Z</time></trkpt>
<trkpt lat="46.58985300" lon="6.50371900"><ele>553.859985</ele><time>2008-06-28T16:09:02Z</time></trkpt>
<trkpt lat="46.59015500" lon="6.50350900"><ele>557.219971</ele><time>2008-06-28T16:09:13Z</time></trkpt>
<trkpt lat="46.59061000" lon="6.50323600"><ele>560.109985</ele><time>2008-06-28T16:09:29Z</time></trkpt>
<trkpt lat="46.59122300" lon="6.50297800"><ele>558.659973</ele><time>2008-06-28T16:09:43Z</time></trkpt>
<trkpt lat="46.59211300" lon="6.50268400"><ele>555.780029</ele><time>2008-06-28T16:09:55Z</time></trkpt>
<trkpt lat="46.59288500" lon="6.50197800"><ele>552.900024</ele><time>2008-06-28T16:10:06Z</time></trkpt>
<trkpt lat="46.59376200" lon="6.50082800"><ele>549.530029</ele><time>2008-06-28T16:10:19Z</time></trkpt>
<trkpt lat="46.59455200" lon="6.49951900"><ele>550.01001</ele><time>2008-06-28T16:10:35Z</time></trkpt>
<trkpt lat="46.59521000" lon="6.49874800"><ele>552.409973</ele><time>2008-06-28T16:10:50Z</time></trkpt>
<trkpt lat="46.59571400" lon="6.49819200"><ele>554.820007</ele><time>2008-06-28T16:11:05Z</time></trkpt>
<trkpt lat="46.59599700" lon="6.49742400"><ele>558.179993</ele><time>2008-06-28T16:11:21Z</time></trkpt>
<trkpt lat="46.59617000" lon="6.49689200"><ele>561.070007</ele><time>2008-06-28T16:11:33Z</time></trkpt>
<trkpt lat="46.59655200" lon="6.49655000"><ele>564.429993</ele><time>2008-06-28T16:11:47Z</time></trkpt>
<trkpt lat="46.59708200" lon="6.49650500"><ele>567.799988</ele><time>2008-06-28T16:12:03Z</time></trkpt>
<trkpt lat="46.59768600" lon="6.49637900"><ele>570.679993</ele><time>2008-06-28T16:12:21Z</time></trkpt>
<trkpt lat="46.59778000" lon="6.49590500"><ele>571.640015</ele><time>2008-06-28T16:12:31Z</time></trkpt>
<trkpt lat="46.59788600" lon="6.49491700"><ele>574.039978</ele><time>2008-06-28T16:12:50Z</time></trkpt>
<trkpt lat="46.59794600" lon="6.49452900"><ele>575.48999</ele><time>2008-06-28T16:12:57Z</time></trkpt>
<trkpt lat="46.59808700" lon="6.49380000"><ele>577.890015</ele><time>2008-06-28T16:13:11Z</time></trkpt>
<trkpt lat="46.59835300" lon="6.49315300"><ele>578.849976</ele><time>2008-06-28T16:13:24Z</time></trkpt>
<trkpt lat="46.59873200" lon="6.49222100"><ele>578.849976</ele><time>2008-06-28T16:13:40Z</time></trkpt>
<trkpt lat="46.59890600" lon="6.49170700"><ele>578.849976</ele><time>2008-06-28T16:13:47Z</time></trkpt>
<trkpt lat="46.59925300" lon="6.49059300"><ele>581.25</ele><time>2008-06-28T16:14:03Z</time></trkpt>
<trkpt lat="46.59953600" lon="6.48981500"><ele>584.619995</ele><time>2008-06-28T16:14:16Z</time></trkpt>
<trkpt lat="46.59963500" lon="6.48950000"><ele>586.059998</ele><time>2008-06-28T16:14:22Z</time></trkpt>
<trkpt lat="46.59986800" lon="6.48877400"><ele>589.429993</ele><time>2008-06-28T16:14:35Z</time></trkpt>
<trkpt lat="46.60004100" lon="6.48801200"><ele>589.909973</ele><time>2008-06-28T16:14:47Z</time></trkpt>
<trkpt lat="46.60008400" lon="6.48786400"><ele>589.909973</ele><time>2008-06-28T16:14:49Z</time></trkpt>
<trkpt lat="46.60038700" lon="6.48714000"><ele>589.909973</ele><time>2008-06-28T16:15:01Z</time></trkpt>
<trkpt lat="46.60041000" lon="6.48711600"><ele>589.909973</ele><time>2008-06-28T16:15:02Z</time></trkpt>
<trkpt lat="46.60048000" lon="6.48712600"><ele>590.390015</ele><time>2008-06-28T16:15:11Z</time></trkpt>
<trkpt lat="46.60047100" lon="6.48704200"><ele>590.390015</ele><time>2008-06-28T16:15:13Z</time></trkpt>
<trkpt lat="46.60069300" lon="6.48690400"><ele>590.869995</ele><time>2008-06-28T16:15:21Z</time></trkpt>
<trkpt lat="46.60101400" lon="6.48675300"><ele>592.309998</ele><time>2008-06-28T16:15:32Z</time></trkpt>
<trkpt lat="46.60114000" lon="6.48590800"><ele>595.190002</ele><time>2008-06-28T16:15:49Z</time></trkpt>
<trkpt lat="46.60118300" lon="6.48560300"><ele>596.150024</ele><time>2008-06-28T16:15:55Z</time></trkpt>
<trkpt lat="46.60126900" lon="6.48510300"><ele>598.559998</ele><time>2008-06-28T16:16:04Z</time></trkpt>
<trkpt lat="46.60129000" lon="6.48493700"><ele>600</ele><time>2008-06-28T16:16:07Z</time></trkpt>
<trkpt lat="46.60145900" lon="6.48381300"><ele>600</ele><time>2008-06-28T16:16:24Z</time></trkpt>
<trkpt lat="46.60165800" lon="6.48273000"><ele>596.640015</ele><time>2008-06-28T16:16:35Z</time></trkpt>
<trkpt lat="46.60178300" lon="6.48214800"><ele>594.710022</ele><time>2008-06-28T16:16:40Z</time></trkpt>
<trkpt lat="46.60221000" lon="6.48012500"><ele>591.830017</ele><time>2008-06-28T16:16:56Z</time></trkpt>
<trkpt lat="46.60250700" lon="6.47873300"><ele>588.460022</ele><time>2008-06-28T16:17:07Z</time></trkpt>
<trkpt lat="46.60253600" lon="6.47859300"><ele>588.460022</ele><time>2008-06-28T16:17:08Z</time></trkpt>
<trkpt lat="46.60264200" lon="6.47804000"><ele>586.539978</ele><time>2008-06-28T16:17:12Z</time></trkpt>
<trkpt lat="46.60272000" lon="6.47702100"><ele>583.659973</ele><time>2008-06-28T16:17:19Z</time></trkpt>
<trkpt lat="46.60275900" lon="6.47671500"><ele>582.219971</ele><time>2008-06-28T16:17:21Z</time></trkpt>
<trkpt lat="46.60300800" lon="6.47602100"><ele>580.289978</ele><time>2008-06-28T16:17:26Z</time></trkpt>
<trkpt lat="46.60411300" lon="6.47466700"><ele>577.890015</ele><time>2008-06-28T16:17:40Z</time></trkpt>
<trkpt lat="46.60498800" lon="6.47361200"><ele>577.890015</ele><time>2008-06-28T16:17:53Z</time></trkpt>
<trkpt lat="46.60555100" lon="6.47281900"><ele>575.969971</ele><time>2008-06-28T16:18:03Z</time></trkpt>
<trkpt lat="46.60576900" lon="6.47254900"><ele>574.530029</ele><time>2008-06-28T16:18:06Z</time></trkpt>
<trkpt lat="46.60594400" lon="6.47153100"><ele>574.530029</ele><time>2008-06-28T16:18:14Z</time></trkpt>
<trkpt lat="46.60605500" lon="6.47032400"><ele>577.409973</ele><time>2008-06-28T16:18:27Z</time></trkpt>
<trkpt lat="46.60612900" lon="6.46954700"><ele>580.289978</ele><time>2008-06-28T16:18:38Z</time></trkpt>
<trkpt lat="46.60627700" lon="6.46828800"><ele>582.700012</ele><time>2008-06-28T16:18:56Z</time></trkpt>
<trkpt lat="46.60632100" lon="6.46794800"><ele>585.099976</ele><time>2008-06-28T16:19:02Z</time></trkpt>
<trkpt lat="46.60635300" lon="6.46772400"><ele>587.02002</ele><time>2008-06-28T16:19:06Z</time></trkpt>
<trkpt lat="46.60653100" lon="6.46658600"><ele>588.950012</ele><time>2008-06-28T16:19:22Z</time></trkpt>
<trkpt lat="46.60679300" lon="6.46491300"><ele>587.5</ele><time>2008-06-28T16:19:40Z</time></trkpt>
<trkpt lat="46.60687000" lon="6.46379400"><ele>589.909973</ele><time>2008-06-28T16:19:53Z</time></trkpt>
<trkpt lat="46.60665400" lon="6.46229200"><ele>587.02002</ele><time>2008-06-28T16:20:09Z</time></trkpt>
<trkpt lat="46.60657900" lon="6.46180600"><ele>585.099976</ele><time>2008-06-28T16:20:13Z</time></trkpt>
<trkpt lat="46.60660600" lon="6.46126100"><ele>579.809998</ele><time>2008-06-28T16:20:17Z</time></trkpt>
<trkpt lat="46.60664000" lon="6.46115200"><ele>578.849976</ele><time>2008-06-28T16:20:18Z</time></trkpt>
<trkpt lat="46.60672700" lon="6.46089300"><ele>577.409973</ele><time>2008-06-28T16:20:21Z</time></trkpt>
<trkpt lat="46.60676400" lon="6.46052800"><ele>576.929993</ele><time>2008-06-28T16:20:25Z</time></trkpt>
<trkpt lat="46.60662600" lon="6.45917600"><ele>577.890015</ele><time>2008-06-28T16:20:40Z</time></trkpt>
<trkpt lat="46.60661700" lon="6.45911300"><ele>578.369995</ele><time>2008-06-28T16:20:41Z</time></trkpt>
<trkpt lat="46.60676900" lon="6.45886600"><ele>579.330017</ele><time>2008-06-28T16:20:47Z</time></trkpt>
<trkpt lat="46.60700000" lon="6.45872300"><ele>579.330017</ele><time>2008-06-28T16:20:52Z</time></trkpt>
<trkpt lat="46.60704700" lon="6.45846300"><ele>578.369995</ele><time>2008-06-28T16:20:56Z</time></trkpt>
<trkpt lat="46.60685700" lon="6.45733700"><ele>579.330017</ele><time>2008-06-28T16:21:10Z</time></trkpt>
<trkpt lat="46.60685500" lon="6.45726600"><ele>579.330017</ele><time>2008-06-28T16:21:11Z</time></trkpt>
<trkpt lat="46.60700100" lon="6.45672100"><ele>582.700012</ele><time>2008-06-28T16:21:23Z</time></trkpt>
<trkpt lat="46.60702400" lon="6.45625900"><ele>583.659973</ele><time>2008-06-28T16:21:31Z</time></trkpt>
<trkpt lat="46.60694800" lon="6.45599000"><ele>582.700012</ele><time>2008-06-28T16:21:35Z</time></trkpt>
<trkpt lat="46.60678500" lon="6.45574500"><ele>582.219971</ele><time>2008-06-28T16:21:39Z</time></trkpt>
<trkpt lat="46.60646200" lon="6.45534600"><ele>582.700012</ele><time>2008-06-28T16:21:46Z</time></trkpt>
<trkpt lat="46.60633900" lon="6.45517600"><ele>583.179993</ele><time>2008-06-28T16:21:49Z</time></trkpt>
<trkpt lat="46.60618600" lon="6.45503000"><ele>583.659973</ele><time>2008-06-28T16:21:52Z</time></trkpt>
<trkpt lat="46.60603900" lon="6.45483200"><ele>583.659973</ele><time>2008-06-28T16:21:56Z</time></trkpt>
<trkpt lat="46.60542000" lon="6.45411500"><ele>585.580017</ele><time>2008-06-28T16:22:11Z</time></trkpt>
<trkpt lat="46.60508400" lon="6.45372400"><ele>588.950012</ele><time>2008-06-28T16:22:22Z</time></trkpt>
<trkpt lat="46.60452300" lon="6.45320800"><ele>589.429993</ele><time>2008-06-28T16:22:37Z</time></trkpt>
<trkpt lat="46.60403600" lon="6.45281500"><ele>586.539978</ele><time>2008-06-28T16:22:45Z</time></trkpt>
<trkpt lat="46.60350100" lon="6.45200400"><ele>586.539978</ele><time>2008-06-28T16:22:56Z</time></trkpt>
<trkpt lat="46.60325700" lon="6.45098700"><ele>587.5</ele><time>2008-06-28T16:23:08Z</time></trkpt>
<trkpt lat="46.60325000" lon="6.45082800"><ele>587.5</ele><time>2008-06-28T16:23:10Z</time></trkpt>
<trkpt lat="46.60328700" lon="6.45053000"><ele>587.97998</ele><time>2008-06-28T16:23:14Z</time></trkpt>
<trkpt lat="46.60343900" lon="6.45025900"><ele>588.460022</ele><time>2008-06-28T16:23:19Z</time></trkpt>
<trkpt lat="46.60375100" lon="6.45004900"><ele>591.830017</ele><time>2008-06-28T16:23:30Z</time></trkpt>
<trkpt lat="46.60398600" lon="6.44970000"><ele>593.75</ele><time>2008-06-28T16:23:41Z</time></trkpt>
<trkpt lat="46.60430600" lon="6.44907800"><ele>595.669983</ele><time>2008-06-28T16:23:57Z</time></trkpt>
<trkpt lat="46.60443000" lon="6.44887000"><ele>595.669983</ele><time>2008-06-28T16:24:01Z</time></trkpt>
<trkpt lat="46.60454700" lon="6.44847200"><ele>596.150024</ele><time>2008-06-28T16:24:08Z</time></trkpt>
<trkpt lat="46.60453600" lon="6.44816600"><ele>596.150024</ele><time>2008-06-28T16:24:13Z</time></trkpt>
<trkpt lat="46.60450300" lon="6.44797000"><ele>596.150024</ele><time>2008-06-28T16:24:16Z</time></trkpt>
<trkpt lat="46.60450700" lon="6.44764200"><ele>596.150024</ele><time>2008-06-28T16:24:21Z</time></trkpt>
<trkpt lat="46.60453800" lon="6.44731700"><ele>594.22998</ele><time>2008-06-28T16:24:25Z</time></trkpt>
<trkpt lat="46.60456200" lon="6.44712300"><ele>593.27002</ele><time>2008-06-28T16:24:27Z</time></trkpt>
<trkpt lat="46.60458800" lon="6.44693800"><ele>592.789978</ele><time>2008-06-28T16:24:29Z</time></trkpt>
<trkpt lat="46.60472500" lon="6.44668000"><ele>592.789978</ele><time>2008-06-28T16:24:33Z</time></trkpt>
<trkpt lat="46.60503400" lon="6.44624900"><ele>593.27002</ele><time>2008-06-28T16:24:41Z</time></trkpt>
<trkpt lat="46.60546800" lon="6.44555900"><ele>595.669983</ele><time>2008-06-28T16:24:55Z</time></trkpt>
<trkpt lat="46.60581000" lon="6.44508600"><ele>595.190002</ele><time>2008-06-28T16:25:06Z</time></trkpt>
<trkpt lat="46.60633900" lon="6.44487200"><ele>595.669983</ele><time>2008-06-28T16:25:16Z</time></trkpt>
<trkpt lat="46.60657800" lon="6.44432800"><ele>596.150024</ele><time>2008-06-28T16:25:25Z</time></trkpt>
<trkpt lat="46.60695400" lon="6.44383200"><ele>598.080017</ele><time>2008-06-28T16:25:36Z</time></trkpt>
<trkpt lat="46.60714900" lon="6.44366000"><ele>600.960022</ele><time>2008-06-28T16:25:43Z</time></trkpt>
<trkpt lat="46.60736100" lon="6.44350100"><ele>604.330017</ele><time>2008-06-28T16:25:50Z</time></trkpt>
<trkpt lat="46.60767200" lon="6.44316700"><ele>607.210022</ele><time>2008-06-28T16:26:01Z</time></trkpt>
<trkpt lat="46.60807700" lon="6.44304300"><ele>607.690002</ele><time>2008-06-28T16:26:12Z</time></trkpt>
<trkpt lat="46.60825900" lon="6.44308200"><ele>607.690002</ele><time>2008-06-28T16:26:16Z</time></trkpt>
<trkpt lat="46.60843500" lon="6.44311500"><ele>607.690002</ele><time>2008-06-28T16:26:20Z</time></trkpt>
<trkpt lat="46.60863200" lon="6.44310400"><ele>607.210022</ele><time>2008-06-28T16:26:24Z</time></trkpt>
<trkpt lat="46.60936100" lon="6.44272400"><ele>608.169983</ele><time>2008-06-28T16:26:39Z</time></trkpt>
<trkpt lat="46.60977700" lon="6.44245100"><ele>610.090027</ele><time>2008-06-28T16:26:52Z</time></trkpt>
<trkpt lat="46.61017100" lon="6.44200500"><ele>608.169983</ele><time>2008-06-28T16:27:04Z</time></trkpt>
<trkpt lat="46.61040500" lon="6.44162400"><ele>608.169983</ele><time>2008-06-28T16:27:14Z</time></trkpt>
<trkpt lat="46.61045200" lon="6.44152200"><ele>607.690002</ele><time>2008-06-28T16:27:16Z</time></trkpt>
<trkpt lat="46.61053400" lon="6.44126400"><ele>606.25</ele><time>2008-06-28T16:27:19Z</time></trkpt>
<trkpt lat="46.61085300" lon="6.44023200"><ele>605.289978</ele><time>2008-06-28T16:27:30Z</time></trkpt>
<trkpt lat="46.61103800" lon="6.43973000"><ele>608.169983</ele><time>2008-06-28T16:27:40Z</time></trkpt>
<trkpt lat="46.61119500" lon="6.43928800"><ele>608.650024</ele><time>2008-06-28T16:27:49Z</time></trkpt>
<trkpt lat="46.61124400" lon="6.43911500"><ele>607.690002</ele><time>2008-06-28T16:27:51Z</time></trkpt>
<trkpt lat="46.61124000" lon="6.43895700"><ele>607.210022</ele><time>2008-06-28T16:27:53Z</time></trkpt>
<trkpt lat="46.61121900" lon="6.43877100"><ele>606.25</ele><time>2008-06-28T16:27:55Z</time></trkpt>
<trkpt lat="46.61095600" lon="6.43800800"><ele>605.77002</ele><time>2008-06-28T16:28:04Z</time></trkpt>
<trkpt lat="46.61067300" lon="6.43710800"><ele>607.210022</ele><time>2008-06-28T16:28:15Z</time></trkpt>
<trkpt lat="46.61042800" lon="6.43676000"><ele>607.210022</ele><time>2008-06-28T16:28:24Z</time></trkpt>
<trkpt lat="46.61009100" lon="6.43651000"><ele>607.690002</ele><time>2008-06-28T16:28:33Z</time></trkpt>
<trkpt lat="46.60978400" lon="6.43623300"><ele>609.130005</ele><time>2008-06-28T16:28:40Z</time></trkpt>
<trkpt lat="46.60960500" lon="6.43600400"><ele>609.609985</ele><time>2008-06-28T16:28:46Z</time></trkpt>
<trkpt lat="46.60918400" lon="6.43556200"><ele>613.460022</ele><time>2008-06-28T16:28:59Z</time></trkpt>
<trkpt lat="46.60896000" lon="6.43501300"><ele>616.340027</ele><time>2008-06-28T16:29:09Z</time></trkpt>
<trkpt lat="46.60871900" lon="6.43472300"><ele>618.26001</ele><time>2008-06-28T16:29:19Z</time></trkpt>
<trkpt lat="46.60845300" lon="6.43447400"><ele>619.710022</ele><time>2008-06-28T16:29:28Z</time></trkpt>
<trkpt lat="46.60825500" lon="6.43420100"><ele>621.630005</ele><time>2008-06-28T16:29:36Z</time></trkpt>
<trkpt lat="46.60800800" lon="6.43378400"><ele>624.030029</ele><time>2008-06-28T16:29:48Z</time></trkpt>
<trkpt lat="46.60782200" lon="6.43322600"><ele>625.960022</ele><time>2008-06-28T16:30:02Z</time></trkpt>
<trkpt lat="46.60773400" lon="6.43277600"><ele>627.880005</ele><time>2008-06-28T16:30:13Z</time></trkpt>
<trkpt lat="46.60765100" lon="6.43219900"><ele>630.76001</ele><time>2008-06-28T16:30:25Z</time></trkpt>
<trkpt lat="46.60744200" lon="6.43185900"><ele>632.679993</ele><time>2008-06-28T16:30:37Z</time></trkpt>
<trkpt lat="46.60742500" lon="6.43184400"><ele>632.679993</ele><time>2008-06-28T16:30:38Z</time></trkpt>
<trkpt lat="46.60727600" lon="6.43181900"><ele>633.650024</ele><time>2008-06-28T16:30:43Z</time></trkpt>
<trkpt lat="46.60714700" lon="6.43183100"><ele>634.130005</ele><time>2008-06-28T16:30:48Z</time></trkpt>
<trkpt lat="46.60707200" lon="6.43185900"><ele>634.609985</ele><time>2008-06-28T16:30:51Z</time></trkpt>
<trkpt lat="46.60681300" lon="6.43148800"><ele>635.090027</ele><time>2008-06-28T16:31:00Z</time></trkpt>
<trkpt lat="46.60676800" lon="6.43138400"><ele>635.090027</ele><time>2008-06-28T16:31:02Z</time></trkpt>
<trkpt lat="46.60669200" lon="6.43124100"><ele>635.090027</ele><time>2008-06-28T16:31:05Z</time></trkpt>
<trkpt lat="46.60661500" lon="6.43088300"><ele>636.049988</ele><time>2008-06-28T16:31:11Z</time></trkpt>
<trkpt lat="46.60657700" lon="6.43076400"><ele>636.530029</ele><time>2008-06-28T16:31:13Z</time></trkpt>
<trkpt lat="46.60627800" lon="6.43007000"><ele>637.01001</ele><time>2008-06-28T16:31:26Z</time></trkpt>
<trkpt lat="46.60614900" lon="6.42990000"><ele>637.01001</ele><time>2008-06-28T16:31:30Z</time></trkpt>
<trkpt lat="46.60595700" lon="6.42968700"><ele>637.01001</ele><time>2008-06-28T16:31:35Z</time></trkpt>
<trkpt lat="46.60577100" lon="6.42952700"><ele>637.48999</ele><time>2008-06-28T16:31:39Z</time></trkpt>
<trkpt lat="46.60529000" lon="6.42912200"><ele>638.929993</ele><time>2008-06-28T16:31:50Z</time></trkpt>
<trkpt lat="46.60495300" lon="6.42867700"><ele>638.929993</ele><time>2008-06-28T16:31:58Z</time></trkpt>
<trkpt lat="46.60479300" lon="6.42836400"><ele>639.890015</ele><time>2008-06-28T16:32:03Z</time></trkpt>
<trkpt lat="46.60454800" lon="6.42807600"><ele>640.859985</ele><time>2008-06-28T16:32:10Z</time></trkpt>
<trkpt lat="46.60449000" lon="6.42780900"><ele>640.380005</ele><time>2008-06-28T16:32:15Z</time></trkpt>
<trkpt lat="46.60451300" lon="6.42758900"><ele>639.890015</ele><time>2008-06-28T16:32:18Z</time></trkpt>
<trkpt lat="46.60450800" lon="6.42740700"><ele>638.929993</ele><time>2008-06-28T16:32:20Z</time></trkpt>
<trkpt lat="46.60441200" lon="6.42683500"><ele>635.570007</ele><time>2008-06-28T16:32:25Z</time></trkpt>
<trkpt lat="46.60444500" lon="6.42626200"><ele>631.719971</ele><time>2008-06-28T16:32:29Z</time></trkpt>
<trkpt lat="46.60463200" lon="6.42547200"><ele>627.880005</ele><time>2008-06-28T16:32:34Z</time></trkpt>
<trkpt lat="46.60467600" lon="6.42455700"><ele>626.440002</ele><time>2008-06-28T16:32:41Z</time></trkpt>
<trkpt lat="46.60472000" lon="6.42437700"><ele>626.919983</ele><time>2008-06-28T16:32:43Z</time></trkpt>
<trkpt lat="46.60497600" lon="6.42402000"><ele>627.400024</ele><time>2008-06-28T16:32:50Z</time></trkpt>
<trkpt lat="46.60528900" lon="6.42363100"><ele>630.280029</ele><time>2008-06-28T16:33:02Z</time></trkpt>
<trkpt lat="46.60530500" lon="6.42306900"><ele>633.169983</ele><time>2008-06-28T16:33:15Z</time></trkpt>
<trkpt lat="46.60548100" lon="6.42251500"><ele>636.049988</ele><time>2008-06-28T16:33:30Z</time></trkpt>
<trkpt lat="46.60574900" lon="6.42223100"><ele>639.409973</ele><time>2008-06-28T16:33:42Z</time></trkpt>
<trkpt lat="46.60595200" lon="6.42170900"><ele>642.299988</ele><time>2008-06-28T16:33:56Z</time></trkpt>
<trkpt lat="46.60591800" lon="6.42112300"><ele>645.179993</ele><time>2008-06-28T16:34:11Z</time></trkpt>
<trkpt lat="46.60588800" lon="6.42060200"><ele>647.099976</ele><time>2008-06-28T16:34:23Z</time></trkpt>
<trkpt lat="46.60567000" lon="6.41970700"><ele>648.549988</ele><time>2008-06-28T16:34:41Z</time></trkpt>
<trkpt lat="46.60548600" lon="6.41881200"><ele>649.51001</ele><time>2008-06-28T16:34:56Z</time></trkpt>
<trkpt lat="46.60545900" lon="6.41760500"><ele>650.469971</ele><time>2008-06-28T16:35:13Z</time></trkpt>
<trkpt lat="46.60542100" lon="6.41593400"><ele>651.909973</ele><time>2008-06-28T16:35:36Z</time></trkpt>
<trkpt lat="46.60539300" lon="6.41450100"><ele>652.869995</ele><time>2008-06-28T16:35:56Z</time></trkpt>
<trkpt lat="46.60539800" lon="6.41429700"><ele>653.349976</ele><time>2008-06-28T16:35:59Z</time></trkpt>
<trkpt lat="46.60551600" lon="6.41293300"><ele>655.76001</ele><time>2008-06-28T16:36:17Z</time></trkpt>
<trkpt lat="46.60555700" lon="6.41175700"><ele>658.159973</ele><time>2008-06-28T16:36:34Z</time></trkpt>
<trkpt lat="46.60536300" lon="6.41078000"><ele>658.159973</ele><time>2008-06-28T16:36:48Z</time></trkpt>
<trkpt lat="46.60509200" lon="6.40964600"><ele>660.080017</ele><time>2008-06-28T16:37:04Z</time></trkpt>
<trkpt lat="46.60502000" lon="6.40914700"><ele>660.559998</ele><time>2008-06-28T16:37:11Z</time></trkpt>
<trkpt lat="46.60513800" lon="6.40880900"><ele>660.559998</ele><time>2008-06-28T16:37:17Z</time></trkpt>
<trkpt lat="46.60524100" lon="6.40876500"><ele>660.080017</ele><time>2008-06-28T16:37:19Z</time></trkpt>
<trkpt lat="46.60608900" lon="6.40796500"><ele>658.640015</ele><time>2008-06-28T16:37:34Z</time></trkpt>
<trkpt lat="46.60639600" lon="6.40763400"><ele>658.640015</ele><time>2008-06-28T16:37:40Z</time></trkpt>
<trkpt lat="46.60654300" lon="6.40738200"><ele>659.599976</ele><time>2008-06-28T16:37:44Z</time></trkpt>
<trkpt lat="46.60686300" lon="6.40670200"><ele>662.969971</ele><time>2008-06-28T16:37:59Z</time></trkpt>
<trkpt lat="46.60708300" lon="6.40606900"><ele>666.330017</ele><time>2008-06-28T16:38:12Z</time></trkpt>
<trkpt lat="46.60741100" lon="6.40564400"><ele>668.72998</ele><time>2008-06-28T16:38:25Z</time></trkpt>
<trkpt lat="46.60795200" lon="6.40544800"><ele>672.099976</ele><time>2008-06-28T16:38:41Z</time></trkpt>
<trkpt lat="46.60848700" lon="6.40539500"><ele>672.580017</ele><time>2008-06-28T16:38:55Z</time></trkpt>
<trkpt lat="46.60858400" lon="6.40536100"><ele>672.580017</ele><time>2008-06-28T16:38:57Z</time></trkpt>
<trkpt lat="46.60878600" lon="6.40526400"><ele>671.140015</ele><time>2008-06-28T16:39:01Z</time></trkpt>
<trkpt lat="46.60940100" lon="6.40451100"><ele>667.289978</ele><time>2008-06-28T16:39:13Z</time></trkpt>
<trkpt lat="46.60994200" lon="6.40370800"><ele>664.409973</ele><time>2008-06-28T16:39:22Z</time></trkpt>
<trkpt lat="46.61049800" lon="6.40244500"><ele>663.929993</ele><time>2008-06-28T16:39:35Z</time></trkpt>
<trkpt lat="46.61095000" lon="6.40168100"><ele>664.890015</ele><time>2008-06-28T16:39:48Z</time></trkpt>
<trkpt lat="46.61151500" lon="6.40109900"><ele>667.289978</ele><time>2008-06-28T16:40:05Z</time></trkpt>
<trkpt lat="46.61211300" lon="6.40073700"><ele>669.700012</ele><time>2008-06-28T16:40:20Z</time></trkpt>
<trkpt lat="46.61219500" lon="6.40068400"><ele>670.179993</ele><time>2008-06-28T16:40:22Z</time></trkpt>
<trkpt lat="46.61259000" lon="6.40026400"><ele>673.059998</ele><time>2008-06-28T16:40:33Z</time></trkpt>
<trkpt lat="46.61301200" lon="6.39983400"><ele>676.419983</ele><time>2008-06-28T16:40:45Z</time></trkpt>
<trkpt lat="46.61336500" lon="6.39940800"><ele>679.789978</ele><time>2008-06-28T16:40:57Z</time></trkpt>
<trkpt lat="46.61350000" lon="6.39923700"><ele>680.75</ele><time>2008-06-28T16:41:02Z</time></trkpt>
<trkpt lat="46.61356900" lon="6.39917400"><ele>680.75</ele><time>2008-06-28T16:41:04Z</time></trkpt>
<trkpt lat="46.61415800" lon="6.39903400"><ele>684.599976</ele><time>2008-06-28T16:41:20Z</time></trkpt>
<trkpt lat="46.61452100" lon="6.39886700"><ele>687.960022</ele><time>2008-06-28T16:41:34Z</time></trkpt>
<trkpt lat="46.61479800" lon="6.39855600"><ele>690.840027</ele><time>2008-06-28T16:41:47Z</time></trkpt>
<trkpt lat="46.61508500" lon="6.39829400"><ele>694.210022</ele><time>2008-06-28T16:42:00Z</time></trkpt>
<trkpt lat="46.61530600" lon="6.39805100"><ele>697.090027</ele><time>2008-06-28T16:42:11Z</time></trkpt>
<trkpt lat="46.61555100" lon="6.39774400"><ele>700.460022</ele><time>2008-06-28T16:42:24Z</time></trkpt>
<trkpt lat="46.61578500" lon="6.39739300"><ele>703.820007</ele><time>2008-06-28T16:42:38Z</time></trkpt>
<trkpt lat="46.61605700" lon="6.39696900"><ele>706.710022</ele><time>2008-06-28T16:42:54Z</time></trkpt>
<trkpt lat="46.61633600" lon="6.39651300"><ele>709.109985</ele><time>2008-06-28T16:43:10Z</time></trkpt>
<trkpt lat="46.61663100" lon="6.39590500"><ele>712.469971</ele><time>2008-06-28T16:43:27Z</time></trkpt>
<trkpt lat="46.61681100" lon="6.39544300"><ele>715.359985</ele><time>2008-06-28T16:43:39Z</time></trkpt>
<trkpt lat="46.61711100" lon="6.39483400"><ele>717.76001</ele><time>2008-06-28T16:43:55Z</time></trkpt>
<trkpt lat="46.61744300" lon="6.39426200"><ele>720.159973</ele><time>2008-06-28T16:44:11Z</time></trkpt>
<trkpt lat="46.61775400" lon="6.39370800"><ele>723.049988</ele><time>2008-06-28T16:44:27Z</time></trkpt>
<trkpt lat="46.61794500" lon="6.39330700"><ele>725.450012</ele><time>2008-06-28T16:44:39Z</time></trkpt>
<trkpt lat="46.61834700" lon="6.39329800"><ele>726.890015</ele><time>2008-06-28T16:44:53Z</time></trkpt>
<trkpt lat="46.61854800" lon="6.39343800"><ele>727.369995</ele><time>2008-06-28T16:44:59Z</time></trkpt>
<trkpt lat="46.61906800" lon="6.39393600"><ele>727.859985</ele><time>2008-06-28T16:45:15Z</time></trkpt>
<trkpt lat="46.61924600" lon="6.39417900"><ele>727.859985</ele><time>2008-06-28T16:45:20Z</time></trkpt>
<trkpt lat="46.61939700" lon="6.39447200"><ele>728.340027</ele><time>2008-06-28T16:45:25Z</time></trkpt>
<trkpt lat="46.61950100" lon="6.39472200"><ele>728.340027</ele><time>2008-06-28T16:45:29Z</time></trkpt>
<trkpt lat="46.61977100" lon="6.39543600"><ele>730.73999</ele><time>2008-06-28T16:45:42Z</time></trkpt>
<trkpt lat="46.62005900" lon="6.39586900"><ele>733.140015</ele><time>2008-06-28T16:45:53Z</time></trkpt>
<trkpt lat="46.62019000" lon="6.39604100"><ele>733.140015</ele><time>2008-06-28T16:45:58Z</time></trkpt>
<trkpt lat="46.62036800" lon="6.39617500"><ele>734.580017</ele><time>2008-06-28T16:46:07Z</time></trkpt>
<trkpt lat="46.62060600" lon="6.39583400"><ele>737.469971</ele><time>2008-06-28T16:46:18Z</time></trkpt>
<trkpt lat="46.62094400" lon="6.39539800"><ele>740.830017</ele><time>2008-06-28T16:46:30Z</time></trkpt>
<trkpt lat="46.62109400" lon="6.39492500"><ele>743.719971</ele><time>2008-06-28T16:46:41Z</time></trkpt>
<trkpt lat="46.62112200" lon="6.39460100"><ele>746.119995</ele><time>2008-06-28T16:46:49Z</time></trkpt>
<trkpt lat="46.62124600" lon="6.39466900"><ele>746.599976</ele><time>2008-06-28T16:46:54Z</time></trkpt>
<trkpt lat="46.62173200" lon="6.39554500"><ele>746.119995</ele><time>2008-06-28T16:47:11Z</time></trkpt>
<trkpt lat="46.62237900" lon="6.39669900"><ele>745.159973</ele><time>2008-06-28T16:47:29Z</time></trkpt>
<trkpt lat="46.62268800" lon="6.39723700"><ele>744.200012</ele><time>2008-06-28T16:47:37Z</time></trkpt>
<trkpt lat="46.62347900" lon="6.39836200"><ele>742.280029</ele><time>2008-06-28T16:47:55Z</time></trkpt>
<trkpt lat="46.62413200" lon="6.39945300"><ele>739.390015</ele><time>2008-06-28T16:48:08Z</time></trkpt>
<trkpt lat="46.62432500" lon="6.39996400"><ele>737.950012</ele><time>2008-06-28T16:48:13Z</time></trkpt>
<trkpt lat="46.62460800" lon="6.40042700"><ele>736.98999</ele><time>2008-06-28T16:48:18Z</time></trkpt>
<trkpt lat="46.62560100" lon="6.40147900"><ele>735.070007</ele><time>2008-06-28T16:48:33Z</time></trkpt>
<trkpt lat="46.62613200" lon="6.40203500"><ele>736.98999</ele><time>2008-06-28T16:48:45Z</time></trkpt>
<trkpt lat="46.62620600" lon="6.40212700"><ele>737.469971</ele><time>2008-06-28T16:48:47Z</time></trkpt>
<trkpt lat="46.62680700" lon="6.40269600"><ele>739.869995</ele><time>2008-06-28T16:49:03Z</time></trkpt>
<trkpt lat="46.62718700" lon="6.40291000"><ele>741.309998</ele><time>2008-06-28T16:49:15Z</time></trkpt>
<trkpt lat="46.62722500" lon="6.40284600"><ele>742.280029</ele><time>2008-06-28T16:49:17Z</time></trkpt>
<trkpt lat="46.62729900" lon="6.40246300"><ele>744.200012</ele><time>2008-06-28T16:49:29Z</time></trkpt>
<trkpt lat="46.62740300" lon="6.40207900"><ele>747.080017</ele><time>2008-06-28T16:49:41Z</time></trkpt>
<trkpt lat="46.62749700" lon="6.40160100"><ele>749.969971</ele><time>2008-06-28T16:49:56Z</time></trkpt>
<trkpt lat="46.62777300" lon="6.40132700"><ele>752.369995</ele><time>2008-06-28T16:50:10Z</time></trkpt>
<trkpt lat="46.62779100" lon="6.40131100"><ele>752.849976</ele><time>2008-06-28T16:50:11Z</time></trkpt>
<trkpt lat="46.62787200" lon="6.40100000"><ele>755.72998</ele><time>2008-06-28T16:50:23Z</time></trkpt>
<trkpt lat="46.62788700" lon="6.40094900"><ele>756.210022</ele><time>2008-06-28T16:50:25Z</time></trkpt>
<trkpt lat="46.62796300" lon="6.40062100"><ele>759.099976</ele><time>2008-06-28T16:50:37Z</time></trkpt>
<trkpt lat="46.62793400" lon="6.40044300"><ele>760.059998</ele><time>2008-06-28T16:50:43Z</time></trkpt>
<trkpt lat="46.62795400" lon="6.40038600"><ele>761.02002</ele><time>2008-06-28T16:50:45Z</time></trkpt>
<trkpt lat="46.62792700" lon="6.39993800"><ele>764.390015</ele><time>2008-06-28T16:51:01Z</time></trkpt>
<trkpt lat="46.62802900" lon="6.39963100"><ele>767.27002</ele><time>2008-06-28T16:51:14Z</time></trkpt>
<trkpt lat="46.62807100" lon="6.39939800"><ele>769.669983</ele><time>2008-06-28T16:51:24Z</time></trkpt>
<trkpt lat="46.62820700" lon="6.39910600"><ele>772.559998</ele><time>2008-06-28T16:51:38Z</time></trkpt>
<trkpt lat="46.62837200" lon="6.39882800"><ele>774.960022</ele><time>2008-06-28T16:51:53Z</time></trkpt>
<trkpt lat="46.62845000" lon="6.39870500"><ele>777.840027</ele><time>2008-06-28T16:52:06Z</time></trkpt>
<trkpt lat="46.62854500" lon="6.39874500"><ele>777.840027</ele><time>2008-06-28T16:52:09Z</time></trkpt>
<trkpt lat="46.62866800" lon="6.39880800"><ele>778.809998</ele><time>2008-06-28T16:52:14Z</time></trkpt>
<trkpt lat="46.62884800" lon="6.39895300"><ele>781.210022</ele><time>2008-06-28T16:52:25Z</time></trkpt>
<trkpt lat="46.62889600" lon="6.39884800"><ele>782.169983</ele><time>2008-06-28T16:52:30Z</time></trkpt>
<trkpt lat="46.62886100" lon="6.39866800"><ele>782.650024</ele><time>2008-06-28T16:52:37Z</time></trkpt>
<trkpt lat="46.62882700" lon="6.39851600"><ele>783.130005</ele><time>2008-06-28T16:52:43Z</time></trkpt>
<trkpt lat="46.62880900" lon="6.39801600"><ele>786.02002</ele><time>2008-06-28T16:52:57Z</time></trkpt>
<trkpt lat="46.62867800" lon="6.39768300"><ele>788.900024</ele><time>2008-06-28T16:53:09Z</time></trkpt>
<trkpt lat="46.62861100" lon="6.39743400"><ele>790.820007</ele><time>2008-06-28T16:53:20Z</time></trkpt>
<trkpt lat="46.62859300" lon="6.39727500"><ele>793.710022</ele><time>2008-06-28T16:53:28Z</time></trkpt>
<trkpt lat="46.62856700" lon="6.39701300"><ele>796.109985</ele><time>2008-06-28T16:53:37Z</time></trkpt>
<trkpt lat="46.62867600" lon="6.39672000"><ele>798.51001</ele><time>2008-06-28T16:53:53Z</time></trkpt>
<trkpt lat="46.62868300" lon="6.39669900"><ele>798.98999</ele><time>2008-06-28T16:53:54Z</time></trkpt>
<trkpt lat="46.62870800" lon="6.39659300"><ele>799.469971</ele><time>2008-06-28T16:54:00Z</time></trkpt>
<trkpt lat="46.62867200" lon="6.39626600"><ele>800.919983</ele><time>2008-06-28T16:54:14Z</time></trkpt>
<trkpt lat="46.62867200" lon="6.39608600"><ele>801.880005</ele><time>2008-06-28T16:54:22Z</time></trkpt>
<trkpt lat="46.62869400" lon="6.39595300"><ele>802.840027</ele><time>2008-06-28T16:54:27Z</time></trkpt>
<trkpt lat="46.62874400" lon="6.39561500"><ele>805.23999</ele><time>2008-06-28T16:54:43Z</time></trkpt>
<trkpt lat="46.62875500" lon="6.39558400"><ele>805.719971</ele><time>2008-06-28T16:54:45Z</time></trkpt>
<trkpt lat="46.62878100" lon="6.39545700"><ele>807.159973</ele><time>2008-06-28T16:54:52Z</time></trkpt>
<trkpt lat="46.62874300" lon="6.39527600"><ele>809.570007</ele><time>2008-06-28T16:55:05Z</time></trkpt>
<trkpt lat="46.62871900" lon="6.39527800"><ele>809.090027</ele><time>2008-06-28T16:55:19Z</time></trkpt>
<trkpt lat="46.62869100" lon="6.39551900"><ele>805.719971</ele><time>2008-06-28T16:55:25Z</time></trkpt>
<trkpt lat="46.62869600" lon="6.39566800"><ele>804.280029</ele><time>2008-06-28T16:55:28Z</time></trkpt>
<trkpt lat="46.62883800" lon="6.39565300"><ele>804.76001</ele><time>2008-06-28T16:55:39Z</time></trkpt>
<trkpt lat="46.62904200" lon="6.39560800"><ele>807.640015</ele><time>2008-06-28T16:55:53Z</time></trkpt>
<trkpt lat="46.62921700" lon="6.39567600"><ele>810.049988</ele><time>2008-06-28T16:56:05Z</time></trkpt>
<trkpt lat="46.62942200" lon="6.39566800"><ele>812.450012</ele><time>2008-06-28T16:56:17Z</time></trkpt>
<trkpt lat="46.62966300" lon="6.39563500"><ele>815.820007</ele><time>2008-06-28T16:56:34Z</time></trkpt>
<trkpt lat="46.62986200" lon="6.39558000"><ele>818.700012</ele><time>2008-06-28T16:56:48Z</time></trkpt>
<trkpt lat="46.63000100" lon="6.39554400"><ele>822.059998</ele><time>2008-06-28T16:57:01Z</time></trkpt>
<trkpt lat="46.63020300" lon="6.39550000"><ele>824.469971</ele><time>2008-06-28T16:57:15Z</time></trkpt>
<trkpt lat="46.63063100" lon="6.39553000"><ele>827.830017</ele><time>2008-06-28T16:57:29Z</time></trkpt>
<trkpt lat="46.63084600" lon="6.39562200"><ele>829.76001</ele><time>2008-06-28T16:57:41Z</time></trkpt>
<trkpt lat="46.63105400" lon="6.39574100"><ele>831.679993</ele><time>2008-06-28T16:57:51Z</time></trkpt>
<trkpt lat="46.63107400" lon="6.39574100"><ele>831.679993</ele><time>2008-06-28T16:57:52Z</time></trkpt>
<trkpt lat="46.63131200" lon="6.39589300"><ele>833.599976</ele><time>2008-06-28T16:58:04Z</time></trkpt>
<trkpt lat="46.63148200" lon="6.39588100"><ele>835.52002</ele><time>2008-06-28T16:58:13Z</time></trkpt>
<trkpt lat="46.63188300" lon="6.39592200"><ele>838.409973</ele><time>2008-06-28T16:58:28Z</time></trkpt>
<trkpt lat="46.63197700" lon="6.39592400"><ele>839.369995</ele><time>2008-06-28T16:58:32Z</time></trkpt>
<trkpt lat="46.63201200" lon="6.39593000"><ele>839.849976</ele><time>2008-06-28T16:58:35Z</time></trkpt>
<trkpt lat="46.63207400" lon="6.39594300"><ele>840.809998</ele><time>2008-06-28T16:58:39Z</time></trkpt>
<trkpt lat="46.63236600" lon="6.39594800"><ele>843.210022</ele><time>2008-06-28T16:58:54Z</time></trkpt>
<trkpt lat="46.63247400" lon="6.39571800"><ele>844.179993</ele><time>2008-06-28T16:59:04Z</time></trkpt>
<trkpt lat="46.63243500" lon="6.39560900"><ele>844.659973</ele><time>2008-06-28T16:59:09Z</time></trkpt>
<trkpt lat="46.63221700" lon="6.39537400"><ele>845.140015</ele><time>2008-06-28T16:59:19Z</time></trkpt>
<trkpt lat="46.63197600" lon="6.39505900"><ele>846.099976</ele><time>2008-06-28T16:59:31Z</time></trkpt>
<trkpt lat="46.63161300" lon="6.39476700"><ele>847.539978</ele><time>2008-06-28T16:59:42Z</time></trkpt>
<trkpt lat="46.63133600" lon="6.39437900"><ele>848.97998</ele><time>2008-06-28T16:59:54Z</time></trkpt>
<trkpt lat="46.63112100" lon="6.39384400"><ele>849.940002</ele><time>2008-06-28T17:00:05Z</time></trkpt>
<trkpt lat="46.63130500" lon="6.39334400"><ele>850.900024</ele><time>2008-06-28T17:00:16Z</time></trkpt>
<trkpt lat="46.63146600" lon="6.39274500"><ele>851.869995</ele><time>2008-06-28T17:00:29Z</time></trkpt>
<trkpt lat="46.63156900" lon="6.39206900"><ele>853.789978</ele><time>2008-06-28T17:00:43Z</time></trkpt>
<trkpt lat="46.63172000" lon="6.39150600"><ele>856.669983</ele><time>2008-06-28T17:00:56Z</time></trkpt>
<trkpt lat="46.63180500" lon="6.39103300"><ele>859.080017</ele><time>2008-06-28T17:01:08Z</time></trkpt>
<trkpt lat="46.63193400" lon="6.39057900"><ele>861</ele><time>2008-06-28T17:01:21Z</time></trkpt>
<trkpt lat="46.63195400" lon="6.39019200"><ele>862.919983</ele><time>2008-06-28T17:01:31Z</time></trkpt>
<trkpt lat="46.63196600" lon="6.38958700"><ele>865.799988</ele><time>2008-06-28T17:01:44Z</time></trkpt>
<trkpt lat="46.63207400" lon="6.38914000"><ele>868.690002</ele><time>2008-06-28T17:01:57Z</time></trkpt>
<trkpt lat="46.63239700" lon="6.38886600"><ele>871.570007</ele><time>2008-06-28T17:02:09Z</time></trkpt>
<trkpt lat="46.63256600" lon="6.38850600"><ele>873.5</ele><time>2008-06-28T17:02:20Z</time></trkpt>
<trkpt lat="46.63268400" lon="6.38806000"><ele>875.900024</ele><time>2008-06-28T17:02:31Z</time></trkpt>
<trkpt lat="46.63293100" lon="6.38771100"><ele>877.340027</ele><time>2008-06-28T17:02:44Z</time></trkpt>
<trkpt lat="46.63302200" lon="6.38769900"><ele>877.820007</ele><time>2008-06-28T17:02:57Z</time></trkpt>
<trkpt lat="46.63317000" lon="6.38769000"><ele>878.780029</ele><time>2008-06-28T17:03:58Z</time></trkpt>
<trkpt lat="46.63327200" lon="6.38763700"><ele>879.26001</ele><time>2008-06-28T17:04:03Z</time></trkpt>
<trkpt lat="46.63352300" lon="6.38754400"><ele>880.710022</ele><time>2008-06-28T17:04:12Z</time></trkpt>
<trkpt lat="46.63385600" lon="6.38743300"><ele>882.630005</ele><time>2008-06-28T17:04:22Z</time></trkpt>
<trkpt lat="46.63414500" lon="6.38718700"><ele>885.030029</ele><time>2008-06-28T17:04:31Z</time></trkpt>
<trkpt lat="46.63444000" lon="6.38688300"><ele>886.950012</ele><time>2008-06-28T17:04:42Z</time></trkpt>
<trkpt lat="46.63475500" lon="6.38665300"><ele>888.880005</ele><time>2008-06-28T17:04:53Z</time></trkpt>
<trkpt lat="46.63511600" lon="6.38637500"><ele>891.280029</ele><time>2008-06-28T17:05:05Z</time></trkpt>
<trkpt lat="46.63534300" lon="6.38602900"><ele>893.200012</ele><time>2008-06-28T17:05:15Z</time></trkpt>
<trkpt lat="46.63551800" lon="6.38557100"><ele>895.119995</ele><time>2008-06-28T17:05:27Z</time></trkpt>
<trkpt lat="46.63557700" lon="6.38542800"><ele>896.090027</ele><time>2008-06-28T17:05:31Z</time></trkpt>
<trkpt lat="46.63572400" lon="6.38486400"><ele>898.01001</ele><time>2008-06-28T17:05:45Z</time></trkpt>
<trkpt lat="46.63588300" lon="6.38430700"><ele>900.409973</ele><time>2008-06-28T17:06:00Z</time></trkpt>
<trkpt lat="46.63599600" lon="6.38395500"><ele>901.849976</ele><time>2008-06-28T17:06:10Z</time></trkpt>
<trkpt lat="46.63615600" lon="6.38354900"><ele>904.26001</ele><time>2008-06-28T17:06:23Z</time></trkpt>
<trkpt lat="46.63632500" lon="6.38313300"><ele>907.619995</ele><time>2008-06-28T17:06:37Z</time></trkpt>
<trkpt lat="46.63647600" lon="6.38276300"><ele>910.51001</ele><time>2008-06-28T17:06:51Z</time></trkpt>
<trkpt lat="46.63649500" lon="6.38274600"><ele>910.51001</ele><time>2008-06-28T17:06:52Z</time></trkpt>
<trkpt lat="46.63666500" lon="6.38247100"><ele>913.390015</ele><time>2008-06-28T17:07:06Z</time></trkpt>
<trkpt lat="46.63689800" lon="6.38224700"><ele>916.27002</ele><time>2008-06-28T17:07:20Z</time></trkpt>
<trkpt lat="46.63709100" lon="6.38204200"><ele>918.679993</ele><time>2008-06-28T17:07:32Z</time></trkpt>
<trkpt lat="46.63719900" lon="6.38195800"><ele>920.119995</ele><time>2008-06-28T17:07:37Z</time></trkpt>
<trkpt lat="46.63728000" lon="6.38186900"><ele>921.559998</ele><time>2008-06-28T17:07:42Z</time></trkpt>
<trkpt lat="46.63756400" lon="6.38161200"><ele>924.929993</ele><time>2008-06-28T17:07:57Z</time></trkpt>
<trkpt lat="46.63765300" lon="6.38113600"><ele>927.809998</ele><time>2008-06-28T17:08:11Z</time></trkpt>
<trkpt lat="46.63770800" lon="6.38069700"><ele>930.690002</ele><time>2008-06-28T17:08:24Z</time></trkpt>
<trkpt lat="46.63779600" lon="6.38036400"><ele>932.619995</ele><time>2008-06-28T17:08:35Z</time></trkpt>
<trkpt lat="46.63780800" lon="6.38033800"><ele>932.619995</ele><time>2008-06-28T17:08:36Z</time></trkpt>
<trkpt lat="46.63781700" lon="6.38020600"><ele>933.580017</ele><time>2008-06-28T17:08:40Z</time></trkpt>
<trkpt lat="46.63785700" lon="6.37984400"><ele>935.5</ele><time>2008-06-28T17:08:51Z</time></trkpt>
<trkpt lat="46.63787900" lon="6.37973800"><ele>935.97998</ele><time>2008-06-28T17:08:54Z</time></trkpt>
<trkpt lat="46.63794400" lon="6.37941500"><ele>936.940002</ele><time>2008-06-28T17:09:04Z</time></trkpt>
<trkpt lat="46.63777600" lon="6.37913400"><ele>937.900024</ele><time>2008-06-28T17:09:12Z</time></trkpt>
<trkpt lat="46.63767300" lon="6.37882900"><ele>940.309998</ele><time>2008-06-28T17:09:26Z</time></trkpt>
<trkpt lat="46.63766200" lon="6.37859100"><ele>941.75</ele><time>2008-06-28T17:09:35Z</time></trkpt>
<trkpt lat="46.63766400" lon="6.37839800"><ele>943.669983</ele><time>2008-06-28T17:09:42Z</time></trkpt>
<trkpt lat="46.63784100" lon="6.37813300"><ele>945.590027</ele><time>2008-06-28T17:09:54Z</time></trkpt>
<trkpt lat="46.63785700" lon="6.37811200"><ele>946.070007</ele><time>2008-06-28T17:09:55Z</time></trkpt>
<trkpt lat="46.63788000" lon="6.37786000"><ele>948.47998</ele><time>2008-06-28T17:10:07Z</time></trkpt>
<trkpt lat="46.63795000" lon="6.37771600"><ele>949.919983</ele><time>2008-06-28T17:10:16Z</time></trkpt>
<trkpt lat="46.63802200" lon="6.37754700"><ele>951.840027</ele><time>2008-06-28T17:10:25Z</time></trkpt>
<trkpt lat="46.63807100" lon="6.37749600"><ele>952.320007</ele><time>2008-06-28T17:10:28Z</time></trkpt>
<trkpt lat="46.63812100" lon="6.37725000"><ele>954.72998</ele><time>2008-06-28T17:10:41Z</time></trkpt>
<trkpt lat="46.63808400" lon="6.37708800"><ele>956.650024</ele><time>2008-06-28T17:10:49Z</time></trkpt>
<trkpt lat="46.63812400" lon="6.37692700"><ele>957.609985</ele><time>2008-06-28T17:10:54Z</time></trkpt>
<trkpt lat="46.63809700" lon="6.37665700"><ele>959.530029</ele><time>2008-06-28T17:11:04Z</time></trkpt>
<trkpt lat="46.63815200" lon="6.37661800"><ele>960.01001</ele><time>2008-06-28T17:11:07Z</time></trkpt>
<trkpt lat="46.63808500" lon="6.37623400"><ele>961.940002</ele><time>2008-06-28T17:11:18Z</time></trkpt>
<trkpt lat="46.63810700" lon="6.37621300"><ele>962.419983</ele><time>2008-06-28T17:11:20Z</time></trkpt>
<trkpt lat="46.63815300" lon="6.37615700"><ele>963.380005</ele><time>2008-06-28T17:11:24Z</time></trkpt>
<trkpt lat="46.63815900" lon="6.37587900"><ele>964.820007</ele><time>2008-06-28T17:11:33Z</time></trkpt>
<trkpt lat="46.63813600" lon="6.37579900"><ele>965.299988</ele><time>2008-06-28T17:11:35Z</time></trkpt>
<trkpt lat="46.63837900" lon="6.37552400"><ele>967.219971</ele><time>2008-06-28T17:11:47Z</time></trkpt>
<trkpt lat="46.63850200" lon="6.37533700"><ele>969.150024</ele><time>2008-06-28T17:11:59Z</time></trkpt>
<trkpt lat="46.63855000" lon="6.37519800"><ele>970.109985</ele><time>2008-06-28T17:12:06Z</time></trkpt>
<trkpt lat="46.63876100" lon="6.37486800"><ele>972.030029</ele><time>2008-06-28T17:12:20Z</time></trkpt>
<trkpt lat="46.63882400" lon="6.37449200"><ele>974.429993</ele><time>2008-06-28T17:12:33Z</time></trkpt>
<trkpt lat="46.63879500" lon="6.37430200"><ele>975.880005</ele><time>2008-06-28T17:12:40Z</time></trkpt>
<trkpt lat="46.63876200" lon="6.37397700"><ele>977.799988</ele><time>2008-06-28T17:12:53Z</time></trkpt>
<trkpt lat="46.63878800" lon="6.37380100"><ele>978.76001</ele><time>2008-06-28T17:12:58Z</time></trkpt>
<trkpt lat="46.63877100" lon="6.37364200"><ele>980.679993</ele><time>2008-06-28T17:13:06Z</time></trkpt>
<trkpt lat="46.63887300" lon="6.37331800"><ele>982.599976</ele><time>2008-06-28T17:13:20Z</time></trkpt>
<trkpt lat="46.63888500" lon="6.37325300"><ele>983.090027</ele><time>2008-06-28T17:13:23Z</time></trkpt>
<trkpt lat="46.63898000" lon="6.37291000"><ele>985.01001</ele><time>2008-06-28T17:13:38Z</time></trkpt>
<trkpt lat="46.63895500" lon="6.37275400"><ele>985.969971</ele><time>2008-06-28T17:13:46Z</time></trkpt>
<trkpt lat="46.63882500" lon="6.37263100"><ele>986.450012</ele><time>2008-06-28T17:13:52Z</time></trkpt>
<trkpt lat="46.63874800" lon="6.37226900"><ele>988.849976</ele><time>2008-06-28T17:14:05Z</time></trkpt>
<trkpt lat="46.63879900" lon="6.37203000"><ele>991.73999</ele><time>2008-06-28T17:14:18Z</time></trkpt>
<trkpt lat="46.63882600" lon="6.37190500"><ele>993.659973</ele><time>2008-06-28T17:14:26Z</time></trkpt>
<trkpt lat="46.63885600" lon="6.37181900"><ele>994.140015</ele><time>2008-06-28T17:14:29Z</time></trkpt>
<trkpt lat="46.63886700" lon="6.37177600"><ele>994.619995</ele><time>2008-06-28T17:14:32Z</time></trkpt>
<trkpt lat="46.63906000" lon="6.37160600"><ele>996.539978</ele><time>2008-06-28T17:14:40Z</time></trkpt>
<trkpt lat="46.63908000" lon="6.37156200"><ele>997.51001</ele><time>2008-06-28T17:14:44Z</time></trkpt>
<trkpt lat="46.63915700" lon="6.37154800"><ele>997.98999</ele><time>2008-06-28T17:14:49Z</time></trkpt>
<trkpt lat="46.63939400" lon="6.37162600"><ele>999.909973</ele><time>2008-06-28T17:15:01Z</time></trkpt>
<trkpt lat="46.63946800" lon="6.37165100"><ele>1000.390015</ele><time>2008-06-28T17:15:08Z</time></trkpt>
<trkpt lat="46.63948500" lon="6.37164200"><ele>1000.869995</ele><time>2008-06-28T17:15:10Z</time></trkpt>
<trkpt lat="46.63966600" lon="6.37157600"><ele>1002.309998</ele><time>2008-06-28T17:15:25Z</time></trkpt>
<trkpt lat="46.63978300" lon="6.37154500"><ele>1003.27002</ele><time>2008-06-28T17:15:40Z</time></trkpt>
<trkpt lat="46.63986500" lon="6.37148600"><ele>1003.75</ele><time>2008-06-28T17:15:47Z</time></trkpt>
<trkpt lat="46.64001900" lon="6.37147300"><ele>1005.200012</ele><time>2008-06-28T17:15:58Z</time></trkpt>
<trkpt lat="46.64003700" lon="6.37145400"><ele>1005.679993</ele><time>2008-06-28T17:16:00Z</time></trkpt>
<trkpt lat="46.64013600" lon="6.37145000"><ele>1006.640015</ele><time>2008-06-28T17:16:05Z</time></trkpt>
<trkpt lat="46.64033900" lon="6.37127600"><ele>1007.599976</ele><time>2008-06-28T17:16:11Z</time></trkpt>
<trkpt lat="46.64039300" lon="6.37121800"><ele>1008.559998</ele><time>2008-06-28T17:16:16Z</time></trkpt>
<trkpt lat="46.64052500" lon="6.37125600"><ele>1009.039978</ele><time>2008-06-28T17:16:20Z</time></trkpt>
<trkpt lat="46.64066600" lon="6.37124700"><ele>1010.47998</ele><time>2008-06-28T17:16:27Z</time></trkpt>
<trkpt lat="46.64074200" lon="6.37119800"><ele>1011.440002</ele><time>2008-06-28T17:16:32Z</time></trkpt>
<trkpt lat="46.64081200" lon="6.37118100"><ele>1011.929993</ele><time>2008-06-28T17:16:36Z</time></trkpt>
<trkpt lat="46.64085300" lon="6.37109400"><ele>1012.409973</ele><time>2008-06-28T17:16:41Z</time></trkpt>
<trkpt lat="46.64097000" lon="6.37097500"><ele>1013.369995</ele><time>2008-06-28T17:16:51Z</time></trkpt>
<trkpt lat="46.64104900" lon="6.37097200"><ele>1013.849976</ele><time>2008-06-28T17:16:55Z</time></trkpt>
<trkpt lat="46.64106300" lon="6.37094700"><ele>1013.849976</ele><time>2008-06-28T17:16:57Z</time></trkpt>
<trkpt lat="46.64117600" lon="6.37101500"><ele>1014.330017</ele><time>2008-06-28T17:17:04Z</time></trkpt>
<trkpt lat="46.64125500" lon="6.37104200"><ele>1014.330017</ele><time>2008-06-28T17:17:07Z</time></trkpt>
<trkpt lat="46.64127100" lon="6.37114400"><ele>1014.330017</ele><time>2008-06-28T17:17:12Z</time></trkpt>
<trkpt lat="46.64122200" lon="6.37143000"><ele>1014.330017</ele><time>2008-06-28T17:17:21Z</time></trkpt>
<trkpt lat="46.64115700" lon="6.37177500"><ele>1013.849976</ele><time>2008-06-28T17:17:31Z</time></trkpt>
<trkpt lat="46.64158400" lon="6.37242200"><ele>1011.440002</ele><time>2008-06-28T17:17:43Z</time></trkpt>
<trkpt lat="46.64161900" lon="6.37250000"><ele>1010.960022</ele><time>2008-06-28T17:17:45Z</time></trkpt>
<trkpt lat="46.64187700" lon="6.37286700"><ele>1008.559998</ele><time>2008-06-28T17:17:52Z</time></trkpt>
<trkpt lat="46.64202800" lon="6.37302700"><ele>1007.119995</ele><time>2008-06-28T17:17:55Z</time></trkpt>
<trkpt lat="46.64245400" lon="6.37353200"><ele>1004.719971</ele><time>2008-06-28T17:18:03Z</time></trkpt>
<trkpt lat="46.64258500" lon="6.37378100"><ele>1003.75</ele><time>2008-06-28T17:18:06Z</time></trkpt>
<trkpt lat="46.64203400" lon="6.37430600"><ele>1002.789978</ele><time>2008-06-28T17:18:19Z</time></trkpt>
<trkpt lat="46.64203600" lon="6.37469300"><ele>1002.789978</ele><time>2008-06-28T17:18:22Z</time></trkpt>
<trkpt lat="46.64180800" lon="6.37540600"><ele>1005.200012</ele><time>2008-06-28T17:18:34Z</time></trkpt>
<trkpt lat="46.64161000" lon="6.37594300"><ele>1006.159973</ele><time>2008-06-28T17:18:45Z</time></trkpt>
<trkpt lat="46.64140800" lon="6.37635400"><ele>1007.599976</ele><time>2008-06-28T17:18:55Z</time></trkpt>
<trkpt lat="46.64128000" lon="6.37675600"><ele>1009.039978</ele><time>2008-06-28T17:19:05Z</time></trkpt>
<trkpt lat="46.64111500" lon="6.37718600"><ele>1010.960022</ele><time>2008-06-28T17:19:15Z</time></trkpt>
<trkpt lat="46.64095100" lon="6.37769600"><ele>1013.369995</ele><time>2008-06-28T17:19:26Z</time></trkpt>
<trkpt lat="46.64087200" lon="6.37814400"><ele>1014.330017</ele><time>2008-06-28T17:19:35Z</time></trkpt>
<trkpt lat="46.64082200" lon="6.37839200"><ele>1013.849976</ele><time>2008-06-28T17:19:39Z</time></trkpt>
<trkpt lat="46.64081000" lon="6.37859400"><ele>1012.890015</ele><time>2008-06-28T17:19:42Z</time></trkpt>
<trkpt lat="46.64093900" lon="6.37891700"><ele>1011.929993</ele><time>2008-06-28T17:19:46Z</time></trkpt>
<trkpt lat="46.64100700" lon="6.37941100"><ele>1009.52002</ele><time>2008-06-28T17:19:51Z</time></trkpt>
<trkpt lat="46.64103700" lon="6.37962200"><ele>1008.080017</ele><time>2008-06-28T17:19:53Z</time></trkpt>
<trkpt lat="46.64103800" lon="6.37995600"><ele>1007.119995</ele><time>2008-06-28T17:19:56Z</time></trkpt>
<trkpt lat="46.64117400" lon="6.38067100"><ele>1004.719971</ele><time>2008-06-28T17:20:03Z</time></trkpt>
<trkpt lat="46.64169300" lon="6.38148300"><ele>1005.200012</ele><time>2008-06-28T17:20:16Z</time></trkpt>
<trkpt lat="46.64203700" lon="6.38193200"><ele>1007.119995</ele><time>2008-06-28T17:20:28Z</time></trkpt>
<trkpt lat="46.64209000" lon="6.38201900"><ele>1007.119995</ele><time>2008-06-28T17:20:30Z</time></trkpt>
<trkpt lat="46.64218400" lon="6.38225500"><ele>1006.159973</ele><time>2008-06-28T17:20:34Z</time></trkpt>
<trkpt lat="46.64228300" lon="6.38275600"><ele>1002.789978</ele><time>2008-06-28T17:20:40Z</time></trkpt>
<trkpt lat="46.64229800" lon="6.38404700"><ele>999.909973</ele><time>2008-06-28T17:20:52Z</time></trkpt>
<trkpt lat="46.64229900" lon="6.38427000"><ele>999.429993</ele><time>2008-06-28T17:20:55Z</time></trkpt>
<trkpt lat="46.64233400" lon="6.38445100"><ele>998.950012</ele><time>2008-06-28T17:20:58Z</time></trkpt>
<trkpt lat="46.64240900" lon="6.38447000"><ele>1000.390015</ele><time>2008-06-28T17:21:02Z</time></trkpt>
<trkpt lat="46.64249100" lon="6.38439300"><ele>1000.869995</ele><time>2008-06-28T17:21:06Z</time></trkpt>
<trkpt lat="46.64255900" lon="6.38421900"><ele>1002.309998</ele><time>2008-06-28T17:21:14Z</time></trkpt>
<trkpt lat="46.64266300" lon="6.38397000"><ele>1004.22998</ele><time>2008-06-28T17:21:28Z</time></trkpt>
<trkpt lat="46.64267600" lon="6.38392300"><ele>1004.719971</ele><time>2008-06-28T17:21:31Z</time></trkpt>
<trkpt lat="46.64272200" lon="6.38384600"><ele>1005.679993</ele><time>2008-06-28T17:21:35Z</time></trkpt>
<trkpt lat="46.64291000" lon="6.38362500"><ele>1009.039978</ele><time>2008-06-28T17:21:50Z</time></trkpt>
<trkpt lat="46.64307300" lon="6.38349500"><ele>1011.440002</ele><time>2008-06-28T17:22:01Z</time></trkpt>
<trkpt lat="46.64326400" lon="6.38334100"><ele>1013.849976</ele><time>2008-06-28T17:22:14Z</time></trkpt>
<trkpt lat="46.64349800" lon="6.38317900"><ele>1016.72998</ele><time>2008-06-28T17:22:29Z</time></trkpt>
<trkpt lat="46.64367400" lon="6.38296600"><ele>1019.619995</ele><time>2008-06-28T17:22:44Z</time></trkpt>
<trkpt lat="46.64376500" lon="6.38289500"><ele>1020.580017</ele><time>2008-06-28T17:22:51Z</time></trkpt>
<trkpt lat="46.64396300" lon="6.38275200"><ele>1023.940002</ele><time>2008-06-28T17:23:06Z</time></trkpt>
<trkpt lat="46.64417600" lon="6.38251400"><ele>1027.310059</ele><time>2008-06-28T17:23:22Z</time></trkpt>
<trkpt lat="46.64435000" lon="6.38233400"><ele>1030.189941</ele><time>2008-06-28T17:23:35Z</time></trkpt>
<trkpt lat="46.64452700" lon="6.38217900"><ele>1032.589966</ele><time>2008-06-28T17:23:48Z</time></trkpt>
<trkpt lat="46.64457700" lon="6.38214500"><ele>1033.550049</ele><time>2008-06-28T17:23:52Z</time></trkpt>
<trkpt lat="46.64476000" lon="6.38218900"><ele>1036.439941</ele><time>2008-06-28T17:24:04Z</time></trkpt>
<trkpt lat="46.64485900" lon="6.38226900"><ele>1038.839966</ele><time>2008-06-28T17:24:16Z</time></trkpt>
<trkpt lat="46.64492000" lon="6.38235000"><ele>1039.800049</ele><time>2008-06-28T17:24:22Z</time></trkpt>
<trkpt lat="46.64498800" lon="6.38253800"><ele>1041.25</ele><time>2008-06-28T17:24:30Z</time></trkpt>
<trkpt lat="46.64503900" lon="6.38264200"><ele>1041.72998</ele><time>2008-06-28T17:24:35Z</time></trkpt>
<trkpt lat="46.64512000" lon="6.38284600"><ele>1043.650024</ele><time>2008-06-28T17:24:47Z</time></trkpt>
<trkpt lat="46.64523800" lon="6.38308500"><ele>1046.530029</ele><time>2008-06-28T17:24:59Z</time></trkpt>
<trkpt lat="46.64530800" lon="6.38325400"><ele>1050.380005</ele><time>2008-06-28T17:25:10Z</time></trkpt>
<trkpt lat="46.64537300" lon="6.38332600"><ele>1051.819946</ele><time>2008-06-28T17:25:15Z</time></trkpt>
<trkpt lat="46.64558800" lon="6.38339100"><ele>1055.180054</ele><time>2008-06-28T17:25:28Z</time></trkpt>
<trkpt lat="46.64575200" lon="6.38335000"><ele>1058.069946</ele><time>2008-06-28T17:25:40Z</time></trkpt>
<trkpt lat="46.64598000" lon="6.38332300"><ele>1061.430054</ele><time>2008-06-28T17:25:53Z</time></trkpt>
<trkpt lat="46.64622700" lon="6.38292600"><ele>1064.319946</ele><time>2008-06-28T17:26:13Z</time></trkpt>
<trkpt lat="46.64627000" lon="6.38281500"><ele>1065.280029</ele><time>2008-06-28T17:26:17Z</time></trkpt>
<trkpt lat="46.64630900" lon="6.38277800"><ele>1065.280029</ele><time>2008-06-28T17:26:19Z</time></trkpt>
<trkpt lat="46.64637200" lon="6.38272900"><ele>1065.76001</ele><time>2008-06-28T17:26:25Z</time></trkpt>
<trkpt lat="46.64633800" lon="6.38245000"><ele>1067.680054</ele><time>2008-06-28T17:26:36Z</time></trkpt>
<trkpt lat="46.64627300" lon="6.38206300"><ele>1069.119995</ele><time>2008-06-28T17:26:49Z</time></trkpt>
<trkpt lat="46.64624100" lon="6.38184800"><ele>1069.599976</ele><time>2008-06-28T17:26:55Z</time></trkpt>
<trkpt lat="46.64621600" lon="6.38170700"><ele>1069.599976</ele><time>2008-06-28T17:26:59Z</time></trkpt>
<trkpt lat="46.64618400" lon="6.38155100"><ele>1070.079956</ele><time>2008-06-28T17:27:03Z</time></trkpt>
<trkpt lat="46.64604000" lon="6.38107200"><ele>1070.079956</ele><time>2008-06-28T17:27:14Z</time></trkpt>
<trkpt lat="46.64601500" lon="6.38051600"><ele>1071.050049</ele><time>2008-06-28T17:27:26Z</time></trkpt>
<trkpt lat="46.64604300" lon="6.38014600"><ele>1072.969971</ele><time>2008-06-28T17:27:36Z</time></trkpt>
<trkpt lat="46.64602600" lon="6.37997900"><ele>1074.410034</ele><time>2008-06-28T17:27:42Z</time></trkpt>
<trkpt lat="46.64613500" lon="6.37955400"><ele>1076.810059</ele><time>2008-06-28T17:27:56Z</time></trkpt>
<trkpt lat="46.64614700" lon="6.37916500"><ele>1078.73999</ele><time>2008-06-28T17:28:09Z</time></trkpt>
<trkpt lat="46.64619700" lon="6.37873000"><ele>1080.660034</ele><time>2008-06-28T17:28:21Z</time></trkpt>
<trkpt lat="46.64618600" lon="6.37834300"><ele>1082.579956</ele><time>2008-06-28T17:28:33Z</time></trkpt>
<trkpt lat="46.64610200" lon="6.37809700"><ele>1084.5</ele><time>2008-06-28T17:28:46Z</time></trkpt>
<trkpt lat="46.64608600" lon="6.37802700"><ele>1084.98999</ele><time>2008-06-28T17:28:50Z</time></trkpt>
<trkpt lat="46.64612600" lon="6.37781900"><ele>1086.910034</ele><time>2008-06-28T17:29:01Z</time></trkpt>
<trkpt lat="46.64616800" lon="6.37747900"><ele>1089.310059</ele><time>2008-06-28T17:29:14Z</time></trkpt>
<trkpt lat="46.64616800" lon="6.37700400"><ele>1092.199951</ele><time>2008-06-28T17:29:30Z</time></trkpt>
<trkpt lat="46.64616500" lon="6.37698600"><ele>1092.199951</ele><time>2008-06-28T17:29:31Z</time></trkpt>
<trkpt lat="46.64622200" lon="6.37664800"><ele>1094.599976</ele><time>2008-06-28T17:29:45Z</time></trkpt>
<trkpt lat="46.64631800" lon="6.37629100"><ele>1096.52002</ele><time>2008-06-28T17:29:59Z</time></trkpt>
<trkpt lat="46.64635100" lon="6.37593200"><ele>1098.439941</ele><time>2008-06-28T17:30:13Z</time></trkpt>
<trkpt lat="46.64640100" lon="6.37577300"><ele>1099.890015</ele><time>2008-06-28T17:30:20Z</time></trkpt>
<trkpt lat="46.64649300" lon="6.37542000"><ele>1103.25</ele><time>2008-06-28T17:30:33Z</time></trkpt>
<trkpt lat="46.64657100" lon="6.37519800"><ele>1105.650024</ele><time>2008-06-28T17:30:43Z</time></trkpt>
<trkpt lat="46.64673000" lon="6.37491700"><ele>1107.579956</ele><time>2008-06-28T17:30:58Z</time></trkpt>
<trkpt lat="46.64684700" lon="6.37475200"><ele>1110.459961</ele><time>2008-06-28T17:31:12Z</time></trkpt>
<trkpt lat="46.64693700" lon="6.37464300"><ele>1112.859985</ele><time>2008-06-28T17:31:20Z</time></trkpt>
<trkpt lat="46.64700900" lon="6.37448200"><ele>1114.310059</ele><time>2008-06-28T17:31:29Z</time></trkpt>
<trkpt lat="46.64703200" lon="6.37439600"><ele>1114.790039</ele><time>2008-06-28T17:31:33Z</time></trkpt>
<trkpt lat="46.64724200" lon="6.37413200"><ele>1117.189941</ele><time>2008-06-28T17:31:50Z</time></trkpt>
<trkpt lat="46.64739200" lon="6.37382800"><ele>1120.069946</ele><time>2008-06-28T17:32:05Z</time></trkpt>
<trkpt lat="46.64746400" lon="6.37350700"><ele>1122</ele><time>2008-06-28T17:32:17Z</time></trkpt>
<trkpt lat="46.64757100" lon="6.37319200"><ele>1125.359985</ele><time>2008-06-28T17:32:28Z</time></trkpt>
<trkpt lat="46.64768100" lon="6.37274800"><ele>1126.319946</ele><time>2008-06-28T17:32:41Z</time></trkpt>
<trkpt lat="46.64785400" lon="6.37232500"><ele>1127.280029</ele><time>2008-06-28T17:32:54Z</time></trkpt>
<trkpt lat="46.64800100" lon="6.37193500"><ele>1128.23999</ele><time>2008-06-28T17:33:07Z</time></trkpt>
<trkpt lat="46.64816800" lon="6.37145200"><ele>1130.170044</ele><time>2008-06-28T17:33:21Z</time></trkpt>
<trkpt lat="46.64827300" lon="6.37092100"><ele>1133.050049</ele><time>2008-06-28T17:33:34Z</time></trkpt>
<trkpt lat="46.64829900" lon="6.37042600"><ele>1135.939941</ele><time>2008-06-28T17:33:48Z</time></trkpt>
<trkpt lat="46.64827800" lon="6.36988300"><ele>1137.859985</ele><time>2008-06-28T17:34:01Z</time></trkpt>
<trkpt lat="46.64834100" lon="6.36940100"><ele>1140.26001</ele><time>2008-06-28T17:34:15Z</time></trkpt>
<trkpt lat="46.64846100" lon="6.36903800"><ele>1143.140015</ele><time>2008-06-28T17:34:27Z</time></trkpt>
<trkpt lat="46.64869400" lon="6.36874700"><ele>1144.109985</ele><time>2008-06-28T17:34:40Z</time></trkpt>
<trkpt lat="46.64881800" lon="6.36855600"><ele>1146.030029</ele><time>2008-06-28T17:34:47Z</time></trkpt>
<trkpt lat="46.64907800" lon="6.36827600"><ele>1148.430054</ele><time>2008-06-28T17:34:58Z</time></trkpt>
<trkpt lat="46.64920400" lon="6.36785100"><ele>1149.390015</ele><time>2008-06-28T17:35:08Z</time></trkpt>
<trkpt lat="46.64936600" lon="6.36707000"><ele>1150.839966</ele><time>2008-06-28T17:35:22Z</time></trkpt>
<trkpt lat="46.64968700" lon="6.36641100"><ele>1151.800049</ele><time>2008-06-28T17:35:36Z</time></trkpt>
<trkpt lat="46.64986200" lon="6.36603100"><ele>1152.280029</ele><time>2008-06-28T17:35:47Z</time></trkpt>
<trkpt lat="46.64997800" lon="6.36611800"><ele>1152.76001</ele><time>2008-06-28T17:35:57Z</time></trkpt>
<trkpt lat="46.64999200" lon="6.36611800"><ele>1152.76001</ele><time>2008-06-28T17:35:58Z</time></trkpt>
<trkpt lat="46.64991900" lon="6.36604100"><ele>1152.76001</ele><time>2008-06-28T17:36:05Z</time></trkpt>
<trkpt lat="46.64988200" lon="6.36599700"><ele>1152.76001</ele><time>2008-06-28T17:36:07Z</time></trkpt>
<trkpt lat="46.64985600" lon="6.36593200"><ele>1152.76001</ele><time>2008-06-28T17:36:09Z</time></trkpt>
<trkpt lat="46.64977100" lon="6.36583800"><ele>1153.23999</ele><time>2008-06-28T17:36:13Z</time></trkpt>
<trkpt lat="46.64955300" lon="6.36568900"><ele>1154.199951</ele><time>2008-06-28T17:36:26Z</time></trkpt>
<trkpt lat="46.64933400" lon="6.36555500"><ele>1156.119995</ele><time>2008-06-28T17:36:55Z</time></trkpt>
<trkpt lat="46.64899100" lon="6.36532900"><ele>1158.050049</ele><time>2008-06-28T17:37:08Z</time></trkpt>
<trkpt lat="46.64858700" lon="6.36489600"><ele>1158.530029</ele><time>2008-06-28T17:37:23Z</time></trkpt>
<trkpt lat="46.64816200" lon="6.36432500"><ele>1159.01001</ele><time>2008-06-28T17:37:37Z</time></trkpt>
<trkpt lat="46.64791600" lon="6.36402400"><ele>1159.48999</ele><time>2008-06-28T17:37:44Z</time></trkpt>
<trkpt lat="46.64770700" lon="6.36357400"><ele>1159.48999</ele><time>2008-06-28T17:37:53Z</time></trkpt>
<trkpt lat="46.64759400" lon="6.36314100"><ele>1158.530029</ele><time>2008-06-28T17:38:00Z</time></trkpt>
<trkpt lat="46.64744200" lon="6.36230900"><ele>1159.01001</ele><time>2008-06-28T17:38:15Z</time></trkpt>
<trkpt lat="46.64727000" lon="6.36172200"><ele>1160.930054</ele><time>2008-06-28T17:38:31Z</time></trkpt>
<trkpt lat="46.64720900" lon="6.36150200"><ele>1161.890015</ele><time>2008-06-28T17:38:43Z</time></trkpt>
<trkpt lat="46.64719500" lon="6.36143900"><ele>1162.849976</ele><time>2008-06-28T17:39:04Z</time></trkpt>
<trkpt lat="46.64718700" lon="6.36138700"><ele>1162.849976</ele><time>2008-06-28T17:39:07Z</time></trkpt>
<trkpt lat="46.64713300" lon="6.36123500"><ele>1163.810059</ele><time>2008-06-28T17:39:14Z</time></trkpt>
<trkpt lat="46.64697700" lon="6.36098100"><ele>1164.77002</ele><time>2008-06-28T17:39:27Z</time></trkpt>
<trkpt lat="46.64689800" lon="6.36066700"><ele>1166.699951</ele><time>2008-06-28T17:39:38Z</time></trkpt>
<trkpt lat="46.64677000" lon="6.36050000"><ele>1167.660034</ele><time>2008-06-28T17:39:46Z</time></trkpt>
<trkpt lat="46.64675000" lon="6.36024600"><ele>1169.099976</ele><time>2008-06-28T17:39:56Z</time></trkpt>
<trkpt lat="46.64672600" lon="6.35983300"><ele>1171.5</ele><time>2008-06-28T17:40:09Z</time></trkpt>
<trkpt lat="46.64672300" lon="6.35974000"><ele>1171.97998</ele><time>2008-06-28T17:40:12Z</time></trkpt>
<trkpt lat="46.64670800" lon="6.35961600"><ele>1172.469971</ele><time>2008-06-28T17:40:23Z</time></trkpt>
<trkpt lat="46.64665300" lon="6.35938000"><ele>1173.910034</ele><time>2008-06-28T17:40:38Z</time></trkpt>
<trkpt lat="46.64659100" lon="6.35895700"><ele>1176.310059</ele><time>2008-06-28T17:40:52Z</time></trkpt>
<trkpt lat="46.64651900" lon="6.35861200"><ele>1178.22998</ele><time>2008-06-28T17:41:05Z</time></trkpt>
<trkpt lat="46.64637100" lon="6.35825300"><ele>1179.670044</ele><time>2008-06-28T17:41:16Z</time></trkpt>
<trkpt lat="46.64615900" lon="6.35816400"><ele>1183.040039</ele><time>2008-06-28T17:41:30Z</time></trkpt>
<trkpt lat="46.64611600" lon="6.35816100"><ele>1183.52002</ele><time>2008-06-28T17:41:33Z</time></trkpt>
<trkpt lat="46.64612700" lon="6.35800800"><ele>1183.52002</ele><time>2008-06-28T17:41:42Z</time></trkpt>
<trkpt lat="46.64646200" lon="6.35774100"><ele>1183.52002</ele><time>2008-06-28T17:41:54Z</time></trkpt>
<trkpt lat="46.64681900" lon="6.35756800"><ele>1183.040039</ele><time>2008-06-28T17:42:05Z</time></trkpt>
<trkpt lat="46.64692300" lon="6.35728600"><ele>1184.959961</ele><time>2008-06-28T17:42:14Z</time></trkpt>
<trkpt lat="46.64693600" lon="6.35714500"><ele>1185.920044</ele><time>2008-06-28T17:42:20Z</time></trkpt>
<trkpt lat="46.64653300" lon="6.35694300"><ele>1189.290039</ele><time>2008-06-28T17:42:37Z</time></trkpt>
<trkpt lat="46.64614300" lon="6.35700200"><ele>1192.170044</ele><time>2008-06-28T17:42:52Z</time></trkpt>
<trkpt lat="46.64586000" lon="6.35686000"><ele>1195.060059</ele><time>2008-06-28T17:43:05Z</time></trkpt>
<trkpt lat="46.64560800" lon="6.35646300"><ele>1197.939941</ele><time>2008-06-28T17:43:20Z</time></trkpt>
<trkpt lat="46.64528100" lon="6.35619700"><ele>1201.300049</ele><time>2008-06-28T17:43:35Z</time></trkpt>
<trkpt lat="46.64500100" lon="6.35603200"><ele>1204.189941</ele><time>2008-06-28T17:43:47Z</time></trkpt>
<trkpt lat="46.64472000" lon="6.35585800"><ele>1207.069946</ele><time>2008-06-28T17:43:59Z</time></trkpt>
<trkpt lat="46.64441000" lon="6.35564300"><ele>1210.439941</ele><time>2008-06-28T17:44:13Z</time></trkpt>
<trkpt lat="46.64413700" lon="6.35544800"><ele>1213.800049</ele><time>2008-06-28T17:44:27Z</time></trkpt>
<trkpt lat="46.64390300" lon="6.35527300"><ele>1216.689941</ele><time>2008-06-28T17:44:39Z</time></trkpt>
<trkpt lat="46.64355600" lon="6.35500200"><ele>1220.050049</ele><time>2008-06-28T17:44:56Z</time></trkpt>
<trkpt lat="46.64327600" lon="6.35483100"><ele>1221.969971</ele><time>2008-06-28T17:45:09Z</time></trkpt>
<trkpt lat="46.64296200" lon="6.35477500"><ele>1225.339966</ele><time>2008-06-28T17:45:21Z</time></trkpt>
<trkpt lat="46.64259500" lon="6.35475000"><ele>1226.780029</ele><time>2008-06-28T17:45:34Z</time></trkpt>
<trkpt lat="46.64201400" lon="6.35466200"><ele>1227.26001</ele><time>2008-06-28T17:45:49Z</time></trkpt>
<trkpt lat="46.64171000" lon="6.35474400"><ele>1227.26001</ele><time>2008-06-28T17:45:56Z</time></trkpt>
<trkpt lat="46.64149200" lon="6.35474800"><ele>1227.73999</ele><time>2008-06-28T17:46:01Z</time></trkpt>
<trkpt lat="46.64105600" lon="6.35465800"><ele>1227.73999</ele><time>2008-06-28T17:46:12Z</time></trkpt>
<trkpt lat="46.64072100" lon="6.35446300"><ele>1227.73999</ele><time>2008-06-28T17:46:19Z</time></trkpt>
<trkpt lat="46.64053000" lon="6.35445900"><ele>1227.73999</ele><time>2008-06-28T17:46:23Z</time></trkpt>
<trkpt lat="46.64038500" lon="6.35448500"><ele>1228.219971</ele><time>2008-06-28T17:46:26Z</time></trkpt>
<trkpt lat="46.64020300" lon="6.35439000"><ele>1229.180054</ele><time>2008-06-28T17:46:30Z</time></trkpt>
<trkpt lat="46.63985900" lon="6.35399900"><ele>1232.069946</ele><time>2008-06-28T17:46:43Z</time></trkpt>
<trkpt lat="46.63961500" lon="6.35353500"><ele>1234.469971</ele><time>2008-06-28T17:46:54Z</time></trkpt>
<trkpt lat="46.63925600" lon="6.35322400"><ele>1235.910034</ele><time>2008-06-28T17:47:06Z</time></trkpt>
<trkpt lat="46.63881500" lon="6.35324100"><ele>1238.800049</ele><time>2008-06-28T17:47:18Z</time></trkpt>
<trkpt lat="46.63847400" lon="6.35317500"><ele>1241.680054</ele><time>2008-06-28T17:47:30Z</time></trkpt>
<trkpt lat="46.63813700" lon="6.35290600"><ele>1244.079956</ele><time>2008-06-28T17:47:43Z</time></trkpt>
<trkpt lat="46.63788900" lon="6.35272100"><ele>1247.449951</ele><time>2008-06-28T17:47:54Z</time></trkpt>
<trkpt lat="46.63765300" lon="6.35252700"><ele>1249.369995</ele><time>2008-06-28T17:48:06Z</time></trkpt>
<trkpt lat="46.63733800" lon="6.35248500"><ele>1251.77002</ele><time>2008-06-28T17:48:18Z</time></trkpt>
<trkpt lat="46.63709800" lon="6.35255300"><ele>1255.140015</ele><time>2008-06-28T17:48:30Z</time></trkpt>
<trkpt lat="46.63702200" lon="6.35251700"><ele>1255.619995</ele><time>2008-06-28T17:48:34Z</time></trkpt>
<trkpt lat="46.63670300" lon="6.35245300"><ele>1258.5</ele><time>2008-06-28T17:48:47Z</time></trkpt>
<trkpt lat="46.63645400" lon="6.35247800"><ele>1260.910034</ele><time>2008-06-28T17:48:58Z</time></trkpt>
<trkpt lat="46.63622800" lon="6.35253000"><ele>1263.790039</ele><time>2008-06-28T17:49:10Z</time></trkpt>
<trkpt lat="46.63604200" lon="6.35283800"><ele>1265.709961</ele><time>2008-06-28T17:49:22Z</time></trkpt>
<trkpt lat="46.63601000" lon="6.35289400"><ele>1266.670044</ele><time>2008-06-28T17:49:24Z</time></trkpt>
<trkpt lat="46.63574800" lon="6.35296100"><ele>1269.079956</ele><time>2008-06-28T17:49:37Z</time></trkpt>
<trkpt lat="46.63551900" lon="6.35284100"><ele>1271.47998</ele><time>2008-06-28T17:49:49Z</time></trkpt>
<trkpt lat="46.63529100" lon="6.35272100"><ele>1274.359985</ele><time>2008-06-28T17:50:02Z</time></trkpt>
<trkpt lat="46.63507300" lon="6.35265400"><ele>1277.25</ele><time>2008-06-28T17:50:15Z</time></trkpt>
<trkpt lat="46.63498300" lon="6.35262200"><ele>1278.689941</ele><time>2008-06-28T17:50:20Z</time></trkpt>
<trkpt lat="46.63482200" lon="6.35251800"><ele>1280.609985</ele><time>2008-06-28T17:50:29Z</time></trkpt>
<trkpt lat="46.63459800" lon="6.35227500"><ele>1283.97998</ele><time>2008-06-28T17:50:42Z</time></trkpt>
<trkpt lat="46.63428600" lon="6.35178900"><ele>1286.380005</ele><time>2008-06-28T17:50:56Z</time></trkpt>
<trkpt lat="46.63387400" lon="6.35132300"><ele>1287.819946</ele><time>2008-06-28T17:51:11Z</time></trkpt>
<trkpt lat="46.63339600" lon="6.35092600"><ele>1288.300049</ele><time>2008-06-28T17:51:25Z</time></trkpt>
<trkpt lat="46.63266900" lon="6.35063700"><ele>1289.27002</ele><time>2008-06-28T17:51:42Z</time></trkpt>
<trkpt lat="46.63250400" lon="6.35051800"><ele>1289.27002</ele><time>2008-06-28T17:51:46Z</time></trkpt>
<trkpt lat="46.63217800" lon="6.35000100"><ele>1290.709961</ele><time>2008-06-28T17:51:57Z</time></trkpt>
<trkpt lat="46.63183100" lon="6.34933100"><ele>1292.150024</ele><time>2008-06-28T17:52:12Z</time></trkpt>
<trkpt lat="46.63180300" lon="6.34930900"><ele>1291.670044</ele><time>2008-06-28T17:52:13Z</time></trkpt>
<trkpt lat="46.63105300" lon="6.34886500"><ele>1288.300049</ele><time>2008-06-28T17:52:27Z</time></trkpt>
<trkpt lat="46.63090000" lon="6.34879500"><ele>1287.339966</ele><time>2008-06-28T17:52:29Z</time></trkpt>
<trkpt lat="46.63059600" lon="6.34877200"><ele>1283.97998</ele><time>2008-06-28T17:52:33Z</time></trkpt>
<trkpt lat="46.63047700" lon="6.34880500"><ele>1282.540039</ele><time>2008-06-28T17:52:35Z</time></trkpt>
<trkpt lat="46.63034200" lon="6.34913900"><ele>1282.540039</ele><time>2008-06-28T17:52:41Z</time></trkpt>
<trkpt lat="46.63038200" lon="6.34929000"><ele>1283.02002</ele><time>2008-06-28T17:52:44Z</time></trkpt>
<trkpt lat="46.63073700" lon="6.34972100"><ele>1284.939941</ele><time>2008-06-28T17:52:57Z</time></trkpt>
<trkpt lat="46.63079800" lon="6.34984800"><ele>1286.859985</ele><time>2008-06-28T17:53:02Z</time></trkpt>
<trkpt lat="46.63073300" lon="6.34991400"><ele>1287.819946</ele><time>2008-06-28T17:53:06Z</time></trkpt>
<trkpt lat="46.63039000" lon="6.34999400"><ele>1291.189941</ele><time>2008-06-28T17:53:20Z</time></trkpt>
<trkpt lat="46.63008100" lon="6.35009300"><ele>1294.550049</ele><time>2008-06-28T17:53:32Z</time></trkpt>
<trkpt lat="46.62978000" lon="6.35027300"><ele>1297.439941</ele><time>2008-06-28T17:53:46Z</time></trkpt>
<trkpt lat="46.62952300" lon="6.35047200"><ele>1299.839966</ele><time>2008-06-28T17:53:59Z</time></trkpt>
<trkpt lat="46.62918000" lon="6.35058400"><ele>1301.280029</ele><time>2008-06-28T17:54:12Z</time></trkpt>
<trkpt lat="46.62893200" lon="6.35049500"><ele>1304.170044</ele><time>2008-06-28T17:54:25Z</time></trkpt>
<trkpt lat="46.62868200" lon="6.35047600"><ele>1307.530029</ele><time>2008-06-28T17:54:38Z</time></trkpt>
<trkpt lat="46.62839300" lon="6.35051100"><ele>1310.410034</ele><time>2008-06-28T17:54:52Z</time></trkpt>
<trkpt lat="46.62832700" lon="6.35054500"><ele>1310.900024</ele><time>2008-06-28T17:55:06Z</time></trkpt>
<trkpt lat="46.62832500" lon="6.35054600"><ele>1311.859985</ele><time>2008-06-28T17:55:37Z</time></trkpt>
<trkpt lat="46.62815300" lon="6.35058400"><ele>1313.780029</ele><time>2008-06-28T17:55:48Z</time></trkpt>
<trkpt lat="46.62787900" lon="6.35068900"><ele>1317.140015</ele><time>2008-06-28T17:56:03Z</time></trkpt>
<trkpt lat="46.62770400" lon="6.35077900"><ele>1320.51001</ele><time>2008-06-28T17:56:13Z</time></trkpt>
<trkpt lat="46.62753300" lon="6.35083000"><ele>1323.869995</ele><time>2008-06-28T17:56:23Z</time></trkpt>
<trkpt lat="46.62749000" lon="6.35098200"><ele>1326.280029</ele><time>2008-06-28T17:56:30Z</time></trkpt>
<trkpt lat="46.62752300" lon="6.35107800"><ele>1327.719971</ele><time>2008-06-28T17:56:35Z</time></trkpt>
<trkpt lat="46.62758200" lon="6.35109200"><ele>1329.160034</ele><time>2008-06-28T17:56:39Z</time></trkpt>
<trkpt lat="46.62763100" lon="6.35113600"><ele>1330.119995</ele><time>2008-06-28T17:56:43Z</time></trkpt>
<trkpt lat="46.62787700" lon="6.35132000"><ele>1333.01001</ele><time>2008-06-28T17:57:00Z</time></trkpt>
<trkpt lat="46.62810600" lon="6.35155200"><ele>1335.410034</ele><time>2008-06-28T17:57:15Z</time></trkpt>
<trkpt lat="46.62841700" lon="6.35177200"><ele>1338.290039</ele><time>2008-06-28T17:57:32Z</time></trkpt>
<trkpt lat="46.62872000" lon="6.35191800"><ele>1340.699951</ele><time>2008-06-28T17:57:48Z</time></trkpt>
<trkpt lat="46.62900200" lon="6.35205400"><ele>1344.060059</ele><time>2008-06-28T17:58:03Z</time></trkpt>
<trkpt lat="46.62917500" lon="6.35219600"><ele>1346.939941</ele><time>2008-06-28T17:58:13Z</time></trkpt>
<trkpt lat="46.62911500" lon="6.35246400"><ele>1350.310059</ele><time>2008-06-28T17:58:25Z</time></trkpt>
<trkpt lat="46.62891500" lon="6.35259000"><ele>1353.189941</ele><time>2008-06-28T17:58:37Z</time></trkpt>
<trkpt lat="46.62867600" lon="6.35273400"><ele>1356.079956</ele><time>2008-06-28T17:58:51Z</time></trkpt>
<trkpt lat="46.62843100" lon="6.35281500"><ele>1359.439941</ele><time>2008-06-28T17:59:04Z</time></trkpt>
<trkpt lat="46.62819000" lon="6.35290400"><ele>1362.329956</ele><time>2008-06-28T17:59:17Z</time></trkpt>
<trkpt lat="46.62793200" lon="6.35302300"><ele>1365.689941</ele><time>2008-06-28T17:59:32Z</time></trkpt>
<trkpt lat="46.62768700" lon="6.35316800"><ele>1368.569946</ele><time>2008-06-28T17:59:47Z</time></trkpt>
<trkpt lat="46.62746000" lon="6.35338400"><ele>1371.459961</ele><time>2008-06-28T18:00:02Z</time></trkpt>
<trkpt lat="46.62734300" lon="6.35351000"><ele>1372.420044</ele><time>2008-06-28T18:00:09Z</time></trkpt>
<trkpt lat="46.62737100" lon="6.35358900"><ele>1372.900024</ele><time>2008-06-28T18:00:19Z</time></trkpt>
<trkpt lat="46.62736700" lon="6.35361000"><ele>1372.420044</ele><time>2008-06-28T18:00:33Z</time></trkpt>
<trkpt lat="46.62736700" lon="6.35360100"><ele>1375.780029</ele><time>2008-06-28T18:05:36Z</time></trkpt>
<trkpt lat="46.62736200" lon="6.35360800"><ele>1379.150024</ele><time>2008-06-28T18:11:24Z</time></trkpt>
<trkpt lat="46.62736300" lon="6.35360400"><ele>1379.150024</ele><time>2008-06-28T18:11:29Z</time></trkpt>
<trkpt lat="46.62744500" lon="6.35336600"><ele>1378.189941</ele><time>2008-06-28T18:11:38Z</time></trkpt>
<trkpt lat="46.62754800" lon="6.35326300"><ele>1376.75</ele><time>2008-06-28T18:11:41Z</time></trkpt>
<trkpt lat="46.62779800" lon="6.35308400"><ele>1374.339966</ele><time>2008-06-28T18:11:46Z</time></trkpt>
<trkpt lat="46.62820600" lon="6.35288500"><ele>1370.5</ele><time>2008-06-28T18:11:52Z</time></trkpt>
<trkpt lat="46.62829600" lon="6.35285300"><ele>1370.5</ele><time>2008-06-28T18:11:53Z</time></trkpt>
<trkpt lat="46.62857400" lon="6.35274300"><ele>1366.170044</ele><time>2008-06-28T18:11:56Z</time></trkpt>
<trkpt lat="46.62887700" lon="6.35259100"><ele>1362.810059</ele><time>2008-06-28T18:11:59Z</time></trkpt>
<trkpt lat="46.62904900" lon="6.35247400"><ele>1359.439941</ele><time>2008-06-28T18:12:01Z</time></trkpt>
<trkpt lat="46.62915100" lon="6.35215100"><ele>1354.630005</ele><time>2008-06-28T18:12:05Z</time></trkpt>
<trkpt lat="46.62900800" lon="6.35204300"><ele>1352.709961</ele><time>2008-06-28T18:12:07Z</time></trkpt>
<trkpt lat="46.62851000" lon="6.35179300"><ele>1347.430054</ele><time>2008-06-28T18:12:12Z</time></trkpt>
<trkpt lat="46.62813800" lon="6.35154900"><ele>1345.5</ele><time>2008-06-28T18:12:16Z</time></trkpt>
<trkpt lat="46.62782600" lon="6.35128200"><ele>1342.619995</ele><time>2008-06-28T18:12:20Z</time></trkpt>
<trkpt lat="46.62766700" lon="6.35115100"><ele>1340.219971</ele><time>2008-06-28T18:12:22Z</time></trkpt>
<trkpt lat="46.62742600" lon="6.35095500"><ele>1335.890015</ele><time>2008-06-28T18:12:26Z</time></trkpt>
<trkpt lat="46.62756900" lon="6.35077900"><ele>1333.01001</ele><time>2008-06-28T18:12:30Z</time></trkpt>
<trkpt lat="46.62793800" lon="6.35063500"><ele>1327.719971</ele><time>2008-06-28T18:12:34Z</time></trkpt>
<trkpt lat="46.62826000" lon="6.35053100"><ele>1323.869995</ele><time>2008-06-28T18:12:37Z</time></trkpt>
<trkpt lat="46.62856600" lon="6.35048000"><ele>1320.51001</ele><time>2008-06-28T18:12:40Z</time></trkpt>
<trkpt lat="46.62866900" lon="6.35047900"><ele>1319.550049</ele><time>2008-06-28T18:12:41Z</time></trkpt>
<trkpt lat="46.62887200" lon="6.35048700"><ele>1318.099976</ele><time>2008-06-28T18:12:43Z</time></trkpt>
<trkpt lat="46.62916900" lon="6.35055900"><ele>1313.780029</ele><time>2008-06-28T18:12:46Z</time></trkpt>
<trkpt lat="46.62981800" lon="6.35023900"><ele>1309.930054</ele><time>2008-06-28T18:12:53Z</time></trkpt>
<trkpt lat="46.63025200" lon="6.35004900"><ele>1305.609985</ele><time>2008-06-28T18:12:58Z</time></trkpt>
<trkpt lat="46.63059000" lon="6.34994800"><ele>1302.23999</ele><time>2008-06-28T18:13:02Z</time></trkpt>
<trkpt lat="46.63065900" lon="6.34993500"><ele>1301.280029</ele><time>2008-06-28T18:13:03Z</time></trkpt>
<trkpt lat="46.63086700" lon="6.34984200"><ele>1298.880005</ele><time>2008-06-28T18:13:08Z</time></trkpt>
<trkpt lat="46.63095600" lon="6.34985800"><ele>1297.920044</ele><time>2008-06-28T18:13:10Z</time></trkpt>
<trkpt lat="46.63124300" lon="6.34997600"><ele>1295.51001</ele><time>2008-06-28T18:13:15Z</time></trkpt>
<trkpt lat="46.63148100" lon="6.35021000"><ele>1293.109985</ele><time>2008-06-28T18:13:19Z</time></trkpt>
<trkpt lat="46.63166900" lon="6.35068500"><ele>1291.189941</ele><time>2008-06-28T18:13:24Z</time></trkpt>
<trkpt lat="46.63188000" lon="6.35128800"><ele>1287.339966</ele><time>2008-06-28T18:13:29Z</time></trkpt>
<trkpt lat="46.63200900" lon="6.35153800"><ele>1286.380005</ele><time>2008-06-28T18:13:31Z</time></trkpt>
<trkpt lat="46.63236300" lon="6.35209800"><ele>1284.459961</ele><time>2008-06-28T18:13:36Z</time></trkpt>
<trkpt lat="46.63316400" lon="6.35315500"><ele>1280.609985</ele><time>2008-06-28T18:13:46Z</time></trkpt>
<trkpt lat="46.63385500" lon="6.35397700"><ele>1277.25</ele><time>2008-06-28T18:13:54Z</time></trkpt>
<trkpt lat="46.63396800" lon="6.35418300"><ele>1276.290039</ele><time>2008-06-28T18:13:56Z</time></trkpt>
<trkpt lat="46.63415800" lon="6.35448000"><ele>1272.920044</ele><time>2008-06-28T18:13:59Z</time></trkpt>
<trkpt lat="46.63451400" lon="6.35473600"><ele>1267.640015</ele><time>2008-06-28T18:14:03Z</time></trkpt>
<trkpt lat="46.63486200" lon="6.35483400"><ele>1263.790039</ele><time>2008-06-28T18:14:06Z</time></trkpt>
<trkpt lat="46.63499400" lon="6.35488300"><ele>1262.829956</ele><time>2008-06-28T18:14:07Z</time></trkpt>
<trkpt lat="46.63548900" lon="6.35516200"><ele>1257.540039</ele><time>2008-06-28T18:14:11Z</time></trkpt>
<trkpt lat="46.63594100" lon="6.35543400"><ele>1252.25</ele><time>2008-06-28T18:14:15Z</time></trkpt>
<trkpt lat="46.63617500" lon="6.35556100"><ele>1248.890015</ele><time>2008-06-28T18:14:17Z</time></trkpt>
<trkpt lat="46.63662000" lon="6.35589300"><ele>1243.119995</ele><time>2008-06-28T18:14:21Z</time></trkpt>
<trkpt lat="46.63714500" lon="6.35620100"><ele>1236.869995</ele><time>2008-06-28T18:14:25Z</time></trkpt>
<trkpt lat="46.63749100" lon="6.35648600"><ele>1233.98999</ele><time>2008-06-28T18:14:28Z</time></trkpt>
<trkpt lat="46.63767600" lon="6.35659600"><ele>1232.550049</ele><time>2008-06-28T18:14:30Z</time></trkpt>
<trkpt lat="46.63778100" lon="6.35691600"><ele>1228.699951</ele><time>2008-06-28T18:14:35Z</time></trkpt>
<trkpt lat="46.63764200" lon="6.35736100"><ele>1223.420044</ele><time>2008-06-28T18:14:39Z</time></trkpt>
<trkpt lat="46.63744000" lon="6.35771700"><ele>1218.609985</ele><time>2008-06-28T18:14:42Z</time></trkpt>
<trkpt lat="46.63726500" lon="6.35795700"><ele>1214.76001</ele><time>2008-06-28T18:14:44Z</time></trkpt>
<trkpt lat="46.63710600" lon="6.35813400"><ele>1211.880005</ele><time>2008-06-28T18:14:46Z</time></trkpt>
<trkpt lat="46.63692500" lon="6.35847600"><ele>1206.589966</ele><time>2008-06-28T18:14:49Z</time></trkpt>
<trkpt lat="46.63657200" lon="6.35892700"><ele>1199.859985</ele><time>2008-06-28T18:14:53Z</time></trkpt>
<trkpt lat="46.63632900" lon="6.35907800"><ele>1196.97998</ele><time>2008-06-28T18:14:55Z</time></trkpt>
<trkpt lat="46.63585000" lon="6.35923400"><ele>1190.72998</ele><time>2008-06-28T18:14:59Z</time></trkpt>
<trkpt lat="46.63546300" lon="6.35959200"><ele>1185.920044</ele><time>2008-06-28T18:15:03Z</time></trkpt>
<trkpt lat="46.63536400" lon="6.35969400"><ele>1184</ele><time>2008-06-28T18:15:04Z</time></trkpt>
<trkpt lat="46.63503900" lon="6.35991500"><ele>1179.670044</ele><time>2008-06-28T18:15:07Z</time></trkpt>
<trkpt lat="46.63486000" lon="6.36005600"><ele>1177.75</ele><time>2008-06-28T18:15:09Z</time></trkpt>
<trkpt lat="46.63475400" lon="6.36038100"><ele>1172.949951</ele><time>2008-06-28T18:15:13Z</time></trkpt>
<trkpt lat="46.63504000" lon="6.36055600"><ele>1170.060059</ele><time>2008-06-28T18:15:17Z</time></trkpt>
<trkpt lat="46.63545100" lon="6.36055500"><ele>1164.77002</ele><time>2008-06-28T18:15:21Z</time></trkpt>
<trkpt lat="46.63570000" lon="6.36073700"><ele>1161.410034</ele><time>2008-06-28T18:15:25Z</time></trkpt>
<trkpt lat="46.63571600" lon="6.36098100"><ele>1160.930054</ele><time>2008-06-28T18:15:27Z</time></trkpt>
<trkpt lat="46.63579000" lon="6.36156300"><ele>1159.969971</ele><time>2008-06-28T18:15:32Z</time></trkpt>
<trkpt lat="46.63595400" lon="6.36228200"><ele>1156.119995</ele><time>2008-06-28T18:15:38Z</time></trkpt>
<trkpt lat="46.63597500" lon="6.36275200"><ele>1152.280029</ele><time>2008-06-28T18:15:42Z</time></trkpt>
<trkpt lat="46.63591800" lon="6.36301500"><ele>1148.910034</ele><time>2008-06-28T18:15:44Z</time></trkpt>
<trkpt lat="46.63587200" lon="6.36353200"><ele>1144.109985</ele><time>2008-06-28T18:15:47Z</time></trkpt>
<trkpt lat="46.63583400" lon="6.36393900"><ele>1138.819946</ele><time>2008-06-28T18:15:49Z</time></trkpt>
<trkpt lat="46.63581600" lon="6.36437400"><ele>1134.969971</ele><time>2008-06-28T18:15:51Z</time></trkpt>
<trkpt lat="46.63579800" lon="6.36473200"><ele>1130.170044</ele><time>2008-06-28T18:15:53Z</time></trkpt>
<trkpt lat="46.63582500" lon="6.36525500"><ele>1125.839966</ele><time>2008-06-28T18:15:57Z</time></trkpt>
<trkpt lat="46.63567000" lon="6.36605500"><ele>1121.030029</ele><time>2008-06-28T18:16:03Z</time></trkpt>
<trkpt lat="46.63562600" lon="6.36617700"><ele>1120.550049</ele><time>2008-06-28T18:16:04Z</time></trkpt>
<trkpt lat="46.63522100" lon="6.36683700"><ele>1116.22998</ele><time>2008-06-28T18:16:10Z</time></trkpt>
<trkpt lat="46.63491700" lon="6.36721500"><ele>1112.859985</ele><time>2008-06-28T18:16:14Z</time></trkpt>
<trkpt lat="46.63459500" lon="6.36758900"><ele>1109.5</ele><time>2008-06-28T18:16:18Z</time></trkpt>
<trkpt lat="46.63447200" lon="6.36771300"><ele>1108.060059</ele><time>2008-06-28T18:16:20Z</time></trkpt>
<trkpt lat="46.63442800" lon="6.36788400"><ele>1107.099976</ele><time>2008-06-28T18:16:22Z</time></trkpt>
<trkpt lat="46.63438300" lon="6.36833900"><ele>1104.209961</ele><time>2008-06-28T18:16:26Z</time></trkpt>
<trkpt lat="46.63438600" lon="6.36889900"><ele>1101.810059</ele><time>2008-06-28T18:16:30Z</time></trkpt>
<trkpt lat="46.63443300" lon="6.36953900"><ele>1098.439941</ele><time>2008-06-28T18:16:35Z</time></trkpt>
<trkpt lat="46.63436900" lon="6.36975100"><ele>1097</ele><time>2008-06-28T18:16:37Z</time></trkpt>
<trkpt lat="46.63421600" lon="6.37032600"><ele>1092.199951</ele><time>2008-06-28T18:16:42Z</time></trkpt>
<trkpt lat="46.63412300" lon="6.37077400"><ele>1088.829956</ele><time>2008-06-28T18:16:45Z</time></trkpt>
<trkpt lat="46.63403400" lon="6.37106800"><ele>1085.949951</ele><time>2008-06-28T18:16:47Z</time></trkpt>
<trkpt lat="46.63400000" lon="6.37119100"><ele>1084.5</ele><time>2008-06-28T18:16:48Z</time></trkpt>
<trkpt lat="46.63371700" lon="6.37168100"><ele>1079.699951</ele><time>2008-06-28T18:16:53Z</time></trkpt>
<trkpt lat="46.63365700" lon="6.37178100"><ele>1079.219971</ele><time>2008-06-28T18:16:54Z</time></trkpt>
<trkpt lat="46.63341300" lon="6.37225100"><ele>1073.449951</ele><time>2008-06-28T18:16:58Z</time></trkpt>
<trkpt lat="46.63330600" lon="6.37244700"><ele>1072.01001</ele><time>2008-06-28T18:17:00Z</time></trkpt>
<trkpt lat="46.63319400" lon="6.37280300"><ele>1070.079956</ele><time>2008-06-28T18:17:03Z</time></trkpt>
<trkpt lat="46.63316800" lon="6.37292900"><ele>1069.119995</ele><time>2008-06-28T18:17:04Z</time></trkpt>
<trkpt lat="46.63308800" lon="6.37345700"><ele>1066.719971</ele><time>2008-06-28T18:17:08Z</time></trkpt>
<trkpt lat="46.63304500" lon="6.37370800"><ele>1065.280029</ele><time>2008-06-28T18:17:10Z</time></trkpt>
<trkpt lat="46.63307200" lon="6.37454300"><ele>1062.869995</ele><time>2008-06-28T18:17:16Z</time></trkpt>
<trkpt lat="46.63317600" lon="6.37518900"><ele>1061.910034</ele><time>2008-06-28T18:17:24Z</time></trkpt>
<trkpt lat="46.63318400" lon="6.37527500"><ele>1062.390015</ele><time>2008-06-28T18:17:26Z</time></trkpt>
<trkpt lat="46.63315600" lon="6.37530200"><ele>1061.910034</ele><time>2008-06-28T18:17:29Z</time></trkpt>
<trkpt lat="46.63315100" lon="6.37525400"><ele>1061.910034</ele><time>2008-06-28T18:17:32Z</time></trkpt>
<trkpt lat="46.63319700" lon="6.37529600"><ele>1061.910034</ele><time>2008-06-28T18:17:46Z</time></trkpt>
<trkpt lat="46.63320700" lon="6.37529700"><ele>1060.949951</ele><time>2008-06-28T18:18:27Z</time></trkpt>
<trkpt lat="46.63370100" lon="6.37523400"><ele>1059.51001</ele><time>2008-06-28T18:18:37Z</time></trkpt>
<trkpt lat="46.63414500" lon="6.37529000"><ele>1059.030029</ele><time>2008-06-28T18:18:47Z</time></trkpt>
<trkpt lat="46.63416000" lon="6.37531000"><ele>1059.030029</ele><time>2008-06-28T18:18:48Z</time></trkpt>
<trkpt lat="46.63419900" lon="6.37538600"><ele>1059.030029</ele><time>2008-06-28T18:19:00Z</time></trkpt>
<trkpt lat="46.63441800" lon="6.37564300"><ele>1059.98999</ele><time>2008-06-28T18:20:09Z</time></trkpt>
<trkpt lat="46.63474000" lon="6.37599900"><ele>1059.98999</ele><time>2008-06-28T18:20:20Z</time></trkpt>
<trkpt lat="46.63483000" lon="6.37601700"><ele>1059.98999</ele><time>2008-06-28T18:20:22Z</time></trkpt>
<trkpt lat="46.63537000" lon="6.37574800"><ele>1059.98999</ele><time>2008-06-28T18:20:34Z</time></trkpt>
<trkpt lat="46.63539900" lon="6.37571500"><ele>1059.98999</ele><time>2008-06-28T18:20:35Z</time></trkpt>
<trkpt lat="46.63555500" lon="6.37559400"><ele>1060.469971</ele><time>2008-06-28T18:20:38Z</time></trkpt>
<trkpt lat="46.63576000" lon="6.37535800"><ele>1060.469971</ele><time>2008-06-28T18:20:43Z</time></trkpt>
<trkpt lat="46.63620800" lon="6.37472000"><ele>1060.469971</ele><time>2008-06-28T18:20:56Z</time></trkpt>
<trkpt lat="46.63642400" lon="6.37407800"><ele>1059.98999</ele><time>2008-06-28T18:21:06Z</time></trkpt>
<trkpt lat="46.63643700" lon="6.37400700"><ele>1059.51001</ele><time>2008-06-28T18:21:07Z</time></trkpt>
<trkpt lat="46.63657900" lon="6.37361800"><ele>1058.550049</ele><time>2008-06-28T18:21:13Z</time></trkpt>
<trkpt lat="46.63668900" lon="6.37324500"><ele>1058.550049</ele><time>2008-06-28T18:21:18Z</time></trkpt>
<trkpt lat="46.63699300" lon="6.37247100"><ele>1057.109985</ele><time>2008-06-28T18:21:29Z</time></trkpt>
<trkpt lat="46.63726700" lon="6.37170000"><ele>1055.670044</ele><time>2008-06-28T18:21:39Z</time></trkpt>
<trkpt lat="46.63743900" lon="6.37129100"><ele>1054.699951</ele><time>2008-06-28T18:21:44Z</time></trkpt>
<trkpt lat="46.63752900" lon="6.37088800"><ele>1054.219971</ele><time>2008-06-28T18:21:50Z</time></trkpt>
<trkpt lat="46.63752500" lon="6.37061200"><ele>1054.699951</ele><time>2008-06-28T18:21:54Z</time></trkpt>
<trkpt lat="46.63770700" lon="6.37004500"><ele>1056.150024</ele><time>2008-06-28T18:22:04Z</time></trkpt>
<trkpt lat="46.63793200" lon="6.36963500"><ele>1058.069946</ele><time>2008-06-28T18:22:14Z</time></trkpt>
<trkpt lat="46.63819100" lon="6.36928800"><ele>1059.98999</ele><time>2008-06-28T18:22:25Z</time></trkpt>
<trkpt lat="46.63835500" lon="6.36887000"><ele>1061.910034</ele><time>2008-06-28T18:22:36Z</time></trkpt>
<trkpt lat="46.63849800" lon="6.36849100"><ele>1063.839966</ele><time>2008-06-28T18:22:47Z</time></trkpt>
<trkpt lat="46.63864100" lon="6.36831400"><ele>1063.839966</ele><time>2008-06-28T18:22:52Z</time></trkpt>
<trkpt lat="46.63890400" lon="6.36836800"><ele>1065.280029</ele><time>2008-06-28T18:23:04Z</time></trkpt>
<trkpt lat="46.63912700" lon="6.36830300"><ele>1063.359985</ele><time>2008-06-28T18:23:15Z</time></trkpt>
<trkpt lat="46.63917900" lon="6.36820400"><ele>1060.469971</ele><time>2008-06-28T18:23:37Z</time></trkpt>
<trkpt lat="46.63919300" lon="6.36818900"><ele>1059.98999</ele><time>2008-06-28T18:23:43Z</time></trkpt>
<trkpt lat="46.63927300" lon="6.36803700"><ele>1059.030029</ele><time>2008-06-28T18:23:49Z</time></trkpt>
<trkpt lat="46.63936200" lon="6.36789700"><ele>1058.550049</ele><time>2008-06-28T18:23:55Z</time></trkpt>
<trkpt lat="46.63946600" lon="6.36799300"><ele>1058.069946</ele><time>2008-06-28T18:24:00Z</time></trkpt>
<trkpt lat="46.63948300" lon="6.36805700"><ele>1058.550049</ele><time>2008-06-28T18:24:02Z</time></trkpt>
<trkpt lat="46.63951100" lon="6.36819000"><ele>1058.550049</ele><time>2008-06-28T18:24:06Z</time></trkpt>
<trkpt lat="46.63949000" lon="6.36869800"><ele>1055.670044</ele><time>2008-06-28T18:24:15Z</time></trkpt>
<trkpt lat="46.63951900" lon="6.36896400"><ele>1056.630005</ele><time>2008-06-28T18:24:19Z</time></trkpt>
<trkpt lat="46.63971800" lon="6.36950500"><ele>1058.069946</ele><time>2008-06-28T18:24:32Z</time></trkpt>
<trkpt lat="46.63977200" lon="6.36982700"><ele>1055.180054</ele><time>2008-06-28T18:24:40Z</time></trkpt>
<trkpt lat="46.63980200" lon="6.37001600"><ele>1052.300049</ele><time>2008-06-28T18:24:45Z</time></trkpt>
<trkpt lat="46.63985200" lon="6.37014700"><ele>1049.900024</ele><time>2008-06-28T18:24:49Z</time></trkpt>
<trkpt lat="46.63997900" lon="6.37019100"><ele>1047.01001</ele><time>2008-06-28T18:24:54Z</time></trkpt>
<trkpt lat="46.64007200" lon="6.37015900"><ele>1045.089966</ele><time>2008-06-28T18:24:58Z</time></trkpt>
<trkpt lat="46.64028200" lon="6.37018600"><ele>1042.689941</ele><time>2008-06-28T18:25:03Z</time></trkpt>
<trkpt lat="46.64033600" lon="6.37038100"><ele>1040.280029</ele><time>2008-06-28T18:25:08Z</time></trkpt>
<trkpt lat="46.64021700" lon="6.37068300"><ele>1037.400024</ele><time>2008-06-28T18:25:16Z</time></trkpt>
<trkpt lat="46.64011800" lon="6.37099900"><ele>1034.040039</ele><time>2008-06-28T18:25:23Z</time></trkpt>
<trkpt lat="46.64005700" lon="6.37124000"><ele>1030.670044</ele><time>2008-06-28T18:25:28Z</time></trkpt>
<trkpt lat="46.63978700" lon="6.37147300"><ele>1026.339966</ele><time>2008-06-28T18:25:34Z</time></trkpt>
<trkpt lat="46.63973800" lon="6.37147400"><ele>1025.859985</ele><time>2008-06-28T18:25:35Z</time></trkpt>
<trkpt lat="46.63964300" lon="6.37156700"><ele>1024.900024</ele><time>2008-06-28T18:25:41Z</time></trkpt>
<trkpt lat="46.63975800" lon="6.37165800"><ele>1023.940002</ele><time>2008-06-28T18:25:47Z</time></trkpt>
<trkpt lat="46.63992100" lon="6.37165600"><ele>1022.5</ele><time>2008-06-28T18:25:53Z</time></trkpt>
<trkpt lat="46.64000400" lon="6.37210500"><ele>1023.940002</ele><time>2008-06-28T18:26:03Z</time></trkpt>
<trkpt lat="46.63996200" lon="6.37279000"><ele>1023.460022</ele><time>2008-06-28T18:26:15Z</time></trkpt>
<trkpt lat="46.63987000" lon="6.37310000"><ele>1021.539978</ele><time>2008-06-28T18:26:19Z</time></trkpt>
<trkpt lat="46.63980500" lon="6.37328100"><ele>1020.580017</ele><time>2008-06-28T18:26:21Z</time></trkpt>
<trkpt lat="46.63975700" lon="6.37344300"><ele>1019.130005</ele><time>2008-06-28T18:26:23Z</time></trkpt>
<trkpt lat="46.63964200" lon="6.37404900"><ele>1015.77002</ele><time>2008-06-28T18:26:30Z</time></trkpt>
<trkpt lat="46.63960300" lon="6.37431600"><ele>1013.849976</ele><time>2008-06-28T18:26:33Z</time></trkpt>
<trkpt lat="46.63953900" lon="6.37453000"><ele>1012.890015</ele><time>2008-06-28T18:26:36Z</time></trkpt>
<trkpt lat="46.63941500" lon="6.37525100"><ele>1009.039978</ele><time>2008-06-28T18:26:43Z</time></trkpt>
<trkpt lat="46.63932200" lon="6.37586500"><ele>1006.640015</ele><time>2008-06-28T18:26:49Z</time></trkpt>
<trkpt lat="46.63922300" lon="6.37617400"><ele>1005.200012</ele><time>2008-06-28T18:26:54Z</time></trkpt>
<trkpt lat="46.63917400" lon="6.37635200"><ele>1003.75</ele><time>2008-06-28T18:26:57Z</time></trkpt>
<trkpt lat="46.63919500" lon="6.37656900"><ele>1002.309998</ele><time>2008-06-28T18:27:01Z</time></trkpt>
<trkpt lat="46.63927000" lon="6.37673400"><ele>1000.869995</ele><time>2008-06-28T18:27:04Z</time></trkpt>
<trkpt lat="46.63934000" lon="6.37682100"><ele>999.909973</ele><time>2008-06-28T18:27:06Z</time></trkpt>
<trkpt lat="46.63942000" lon="6.37690600"><ele>999.429993</ele><time>2008-06-28T18:27:08Z</time></trkpt>
<trkpt lat="46.63969400" lon="6.37714200"><ele>997.98999</ele><time>2008-06-28T18:27:16Z</time></trkpt>
<trkpt lat="46.63958400" lon="6.37739100"><ele>996.539978</ele><time>2008-06-28T18:27:22Z</time></trkpt>
<trkpt lat="46.63923800" lon="6.37782400"><ele>993.659973</ele><time>2008-06-28T18:27:29Z</time></trkpt>
<trkpt lat="46.63907100" lon="6.37805600"><ele>991.73999</ele><time>2008-06-28T18:27:33Z</time></trkpt>
<trkpt lat="46.63893700" lon="6.37833100"><ele>990.780029</ele><time>2008-06-28T18:27:38Z</time></trkpt>
<trkpt lat="46.63891400" lon="6.37846200"><ele>991.26001</ele><time>2008-06-28T18:27:40Z</time></trkpt>
<trkpt lat="46.63879300" lon="6.37898800"><ele>992.700012</ele><time>2008-06-28T18:27:49Z</time></trkpt>
<trkpt lat="46.63879200" lon="6.37924300"><ele>993.179993</ele><time>2008-06-28T18:27:53Z</time></trkpt>
<trkpt lat="46.63881100" lon="6.37943300"><ele>992.700012</ele><time>2008-06-28T18:27:56Z</time></trkpt>
<trkpt lat="46.63884200" lon="6.37972800"><ele>991.73999</ele><time>2008-06-28T18:28:01Z</time></trkpt>
<trkpt lat="46.63883200" lon="6.37986000"><ele>992.219971</ele><time>2008-06-28T18:28:17Z</time></trkpt>
<trkpt lat="46.63878200" lon="6.38012200"><ele>993.659973</ele><time>2008-06-28T18:28:29Z</time></trkpt>
<trkpt lat="46.63871900" lon="6.38064500"><ele>992.700012</ele><time>2008-06-28T18:28:41Z</time></trkpt>
<trkpt lat="46.63866800" lon="6.38114200"><ele>990.299988</ele><time>2008-06-28T18:28:52Z</time></trkpt>
<trkpt lat="46.63864300" lon="6.38127000"><ele>989.330017</ele><time>2008-06-28T18:28:54Z</time></trkpt>
<trkpt lat="46.63860600" lon="6.38140200"><ele>988.369995</ele><time>2008-06-28T18:28:56Z</time></trkpt>
<trkpt lat="46.63855300" lon="6.38151000"><ele>987.409973</ele><time>2008-06-28T18:28:58Z</time></trkpt>
<trkpt lat="46.63837700" lon="6.38184600"><ele>985.01001</ele><time>2008-06-28T18:29:04Z</time></trkpt>
<trkpt lat="46.63837200" lon="6.38226400"><ele>981.640015</ele><time>2008-06-28T18:29:10Z</time></trkpt>
<trkpt lat="46.63835900" lon="6.38239800"><ele>980.679993</ele><time>2008-06-28T18:29:12Z</time></trkpt>
<trkpt lat="46.63815200" lon="6.38282700"><ele>978.76001</ele><time>2008-06-28T18:29:19Z</time></trkpt>
<trkpt lat="46.63777100" lon="6.38329200"><ele>976.840027</ele><time>2008-06-28T18:29:31Z</time></trkpt>
<trkpt lat="46.63758700" lon="6.38348800"><ele>976.359985</ele><time>2008-06-28T18:29:35Z</time></trkpt>
<trkpt lat="46.63748200" lon="6.38365000"><ele>975.390015</ele><time>2008-06-28T18:29:39Z</time></trkpt>
<trkpt lat="46.63748700" lon="6.38392700"><ele>972.51001</ele><time>2008-06-28T18:29:43Z</time></trkpt>
<trkpt lat="46.63756200" lon="6.38423600"><ele>970.109985</ele><time>2008-06-28T18:29:47Z</time></trkpt>
<trkpt lat="46.63759600" lon="6.38439600"><ele>969.150024</ele><time>2008-06-28T18:29:49Z</time></trkpt>
<trkpt lat="46.63762700" lon="6.38461700"><ele>967.700012</ele><time>2008-06-28T18:29:52Z</time></trkpt>
<trkpt lat="46.63762300" lon="6.38483600"><ele>966.73999</ele><time>2008-06-28T18:29:55Z</time></trkpt>
<trkpt lat="46.63756600" lon="6.38503200"><ele>965.299988</ele><time>2008-06-28T18:29:58Z</time></trkpt>
<trkpt lat="46.63734400" lon="6.38548400"><ele>962.419983</ele><time>2008-06-28T18:30:08Z</time></trkpt>
<trkpt lat="46.63730400" lon="6.38551700"><ele>962.419983</ele><time>2008-06-28T18:30:09Z</time></trkpt>
<trkpt lat="46.63722700" lon="6.38560900"><ele>961.940002</ele><time>2008-06-28T18:30:11Z</time></trkpt>
<trkpt lat="46.63715400" lon="6.38572300"><ele>960.48999</ele><time>2008-06-28T18:30:13Z</time></trkpt>
<trkpt lat="46.63695600" lon="6.38608900"><ele>957.130005</ele><time>2008-06-28T18:30:18Z</time></trkpt>
<trkpt lat="46.63679800" lon="6.38626900"><ele>955.210022</ele><time>2008-06-28T18:30:22Z</time></trkpt>
<trkpt lat="46.63649900" lon="6.38659900"><ele>953.280029</ele><time>2008-06-28T18:30:30Z</time></trkpt>
<trkpt lat="46.63642500" lon="6.38669400"><ele>952.799988</ele><time>2008-06-28T18:30:32Z</time></trkpt>
<trkpt lat="46.63627100" lon="6.38691600"><ele>950.880005</ele><time>2008-06-28T18:30:37Z</time></trkpt>
<trkpt lat="46.63609000" lon="6.38704700"><ele>948.960022</ele><time>2008-06-28T18:30:41Z</time></trkpt>
<trkpt lat="46.63603400" lon="6.38709000"><ele>948</ele><time>2008-06-28T18:30:42Z</time></trkpt>
<trkpt lat="46.63574900" lon="6.38736000"><ele>944.630005</ele><time>2008-06-28T18:30:48Z</time></trkpt>
<trkpt lat="46.63569900" lon="6.38740600"><ele>944.150024</ele><time>2008-06-28T18:30:49Z</time></trkpt>
<trkpt lat="46.63540000" lon="6.38762000"><ele>940.309998</ele><time>2008-06-28T18:30:56Z</time></trkpt>
<trkpt lat="46.63520900" lon="6.38771600"><ele>937.419983</ele><time>2008-06-28T18:31:02Z</time></trkpt>
<trkpt lat="46.63505100" lon="6.38779300"><ele>934.059998</ele><time>2008-06-28T18:31:06Z</time></trkpt>
<trkpt lat="46.63490700" lon="6.38788800"><ele>930.690002</ele><time>2008-06-28T18:31:10Z</time></trkpt>
<trkpt lat="46.63487600" lon="6.38791400"><ele>929.72998</ele><time>2008-06-28T18:31:11Z</time></trkpt>
<trkpt lat="46.63482500" lon="6.38800800"><ele>928.77002</ele><time>2008-06-28T18:31:13Z</time></trkpt>
<trkpt lat="46.63468600" lon="6.38810900"><ele>925.890015</ele><time>2008-06-28T18:31:18Z</time></trkpt>
<trkpt lat="46.63464900" lon="6.38811800"><ele>925.409973</ele><time>2008-06-28T18:31:30Z</time></trkpt>
<trkpt lat="46.63466500" lon="6.38813900"><ele>924.929993</ele><time>2008-06-28T18:32:24Z</time></trkpt>
<trkpt lat="46.63468700" lon="6.38837200"><ele>925.890015</ele><time>2008-06-28T18:32:30Z</time></trkpt>
<trkpt lat="46.63473500" lon="6.38844900"><ele>926.369995</ele><time>2008-06-28T18:32:34Z</time></trkpt>
<trkpt lat="46.63476500" lon="6.38847200"><ele>926.369995</ele><time>2008-06-28T18:32:53Z</time></trkpt>
<trkpt lat="46.63480800" lon="6.38848200"><ele>926.849976</ele><time>2008-06-28T18:33:06Z</time></trkpt>
<trkpt lat="46.63484100" lon="6.38853400"><ele>926.849976</ele><time>2008-06-28T18:33:10Z</time></trkpt>
<trkpt lat="46.63470300" lon="6.38843600"><ele>926.369995</ele><time>2008-06-28T18:33:17Z</time></trkpt>
<trkpt lat="46.63465800" lon="6.38837300"><ele>925.890015</ele><time>2008-06-28T18:33:19Z</time></trkpt>
<trkpt lat="46.63459600" lon="6.38823100"><ele>925.409973</ele><time>2008-06-28T18:33:22Z</time></trkpt>
<trkpt lat="46.63460400" lon="6.38803400"><ele>924.450012</ele><time>2008-06-28T18:33:25Z</time></trkpt>
<trkpt lat="46.63481800" lon="6.38737000"><ele>920.599976</ele><time>2008-06-28T18:33:33Z</time></trkpt>
<trkpt lat="46.63485800" lon="6.38728500"><ele>920.599976</ele><time>2008-06-28T18:33:34Z</time></trkpt>
<trkpt lat="46.63515500" lon="6.38665600"><ele>918.200012</ele><time>2008-06-28T18:33:42Z</time></trkpt>
<trkpt lat="46.63521500" lon="6.38651300"><ele>917.23999</ele><time>2008-06-28T18:33:44Z</time></trkpt>
<trkpt lat="46.63555000" lon="6.38589600"><ele>913.869995</ele><time>2008-06-28T18:33:52Z</time></trkpt>
<trkpt lat="46.63559000" lon="6.38581400"><ele>913.390015</ele><time>2008-06-28T18:33:53Z</time></trkpt>
<trkpt lat="46.63563100" lon="6.38573500"><ele>912.909973</ele><time>2008-06-28T18:33:54Z</time></trkpt>
<trkpt lat="46.63559900" lon="6.38531200"><ele>910.030029</ele><time>2008-06-28T18:34:01Z</time></trkpt>
<trkpt lat="46.63547200" lon="6.38550700"><ele>909.059998</ele><time>2008-06-28T18:34:05Z</time></trkpt>
<trkpt lat="46.63542300" lon="6.38566500"><ele>908.099976</ele><time>2008-06-28T18:34:07Z</time></trkpt>
<trkpt lat="46.63515800" lon="6.38609200"><ele>906.179993</ele><time>2008-06-28T18:34:12Z</time></trkpt>
<trkpt lat="46.63493700" lon="6.38630700"><ele>904.73999</ele><time>2008-06-28T18:34:15Z</time></trkpt>
<trkpt lat="46.63457400" lon="6.38659100"><ele>902.330017</ele><time>2008-06-28T18:34:19Z</time></trkpt>
<trkpt lat="46.63433400" lon="6.38684800"><ele>900.890015</ele><time>2008-06-28T18:34:22Z</time></trkpt>
<trkpt lat="46.63413900" lon="6.38716300"><ele>898.969971</ele><time>2008-06-28T18:34:25Z</time></trkpt>
<trkpt lat="46.63378900" lon="6.38749100"><ele>896.570007</ele><time>2008-06-28T18:34:29Z</time></trkpt>
<trkpt lat="46.63360200" lon="6.38759100"><ele>895.119995</ele><time>2008-06-28T18:34:31Z</time></trkpt>
<trkpt lat="46.63341500" lon="6.38766500"><ele>893.679993</ele><time>2008-06-28T18:34:33Z</time></trkpt>
<trkpt lat="46.63303600" lon="6.38773300"><ele>892.23999</ele><time>2008-06-28T18:34:39Z</time></trkpt>
<trkpt lat="46.63312800" lon="6.38761500"><ele>891.76001</ele><time>2008-06-28T18:34:44Z</time></trkpt>
<trkpt lat="46.63325900" lon="6.38757800"><ele>891.76001</ele><time>2008-06-28T18:34:47Z</time></trkpt>
<trkpt lat="46.63334800" lon="6.38754300"><ele>891.280029</ele><time>2008-06-28T18:34:49Z</time></trkpt>
<trkpt lat="46.63346800" lon="6.38748300"><ele>891.76001</ele><time>2008-06-28T18:34:51Z</time></trkpt>
<trkpt lat="46.63356000" lon="6.38742300"><ele>891.76001</ele><time>2008-06-28T18:34:53Z</time></trkpt>
<trkpt lat="46.63366400" lon="6.38732200"><ele>891.76001</ele><time>2008-06-28T18:34:56Z</time></trkpt>
<trkpt lat="46.63382200" lon="6.38714800"><ele>891.76001</ele><time>2008-06-28T18:35:00Z</time></trkpt>
<trkpt lat="46.63394300" lon="6.38699300"><ele>891.280029</ele><time>2008-06-28T18:35:03Z</time></trkpt>
<trkpt lat="46.63422200" lon="6.38667200"><ele>891.280029</ele><time>2008-06-28T18:35:09Z</time></trkpt>
<trkpt lat="46.63430800" lon="6.38628900"><ele>891.280029</ele><time>2008-06-28T18:35:15Z</time></trkpt>
<trkpt lat="46.63419300" lon="6.38591500"><ele>891.280029</ele><time>2008-06-28T18:35:20Z</time></trkpt>
<trkpt lat="46.63403500" lon="6.38584600"><ele>891.280029</ele><time>2008-06-28T18:35:24Z</time></trkpt>
<trkpt lat="46.63388700" lon="6.38585800"><ele>891.280029</ele><time>2008-06-28T18:35:27Z</time></trkpt>
<trkpt lat="46.63358100" lon="6.38607400"><ele>891.280029</ele><time>2008-06-28T18:35:33Z</time></trkpt>
<trkpt lat="46.63321800" lon="6.38609200"><ele>890.799988</ele><time>2008-06-28T18:35:39Z</time></trkpt>
<trkpt lat="46.63309400" lon="6.38608000"><ele>890.320007</ele><time>2008-06-28T18:35:41Z</time></trkpt>
<trkpt lat="46.63288100" lon="6.38603000"><ele>888.880005</ele><time>2008-06-28T18:35:44Z</time></trkpt>
<trkpt lat="46.63248100" lon="6.38609300"><ele>884.549988</ele><time>2008-06-28T18:35:49Z</time></trkpt>
<trkpt lat="46.63240400" lon="6.38610600"><ele>884.070007</ele><time>2008-06-28T18:35:50Z</time></trkpt>
<trkpt lat="46.63202900" lon="6.38629100"><ele>879.73999</ele><time>2008-06-28T18:35:55Z</time></trkpt>
<trkpt lat="46.63189500" lon="6.38635500"><ele>878.299988</ele><time>2008-06-28T18:35:57Z</time></trkpt>
<trkpt lat="46.63166700" lon="6.38660200"><ele>875.900024</ele><time>2008-06-28T18:36:01Z</time></trkpt>
<trkpt lat="46.63154400" lon="6.38689200"><ele>873.5</ele><time>2008-06-28T18:36:04Z</time></trkpt>
<trkpt lat="46.63142800" lon="6.38742200"><ele>869.650024</ele><time>2008-06-28T18:36:09Z</time></trkpt>
<trkpt lat="46.63133400" lon="6.38770800"><ele>866.77002</ele><time>2008-06-28T18:36:12Z</time></trkpt>
<trkpt lat="46.63120000" lon="6.38798200"><ele>864.840027</ele><time>2008-06-28T18:36:15Z</time></trkpt>
<trkpt lat="46.63099300" lon="6.38829700"><ele>861.960022</ele><time>2008-06-28T18:36:19Z</time></trkpt>
<trkpt lat="46.63068600" lon="6.38889500"><ele>857.630005</ele><time>2008-06-28T18:36:25Z</time></trkpt>
<trkpt lat="46.63050400" lon="6.38936400"><ele>854.27002</ele><time>2008-06-28T18:36:29Z</time></trkpt>
<trkpt lat="46.63015900" lon="6.39029800"><ele>851.380005</ele><time>2008-06-28T18:36:38Z</time></trkpt>
<trkpt lat="46.63002100" lon="6.39074100"><ele>850.419983</ele><time>2008-06-28T18:36:42Z</time></trkpt>
<trkpt lat="46.62990900" lon="6.39116600"><ele>849.940002</ele><time>2008-06-28T18:36:46Z</time></trkpt>
<trkpt lat="46.62967700" lon="6.39143000"><ele>849.460022</ele><time>2008-06-28T18:36:51Z</time></trkpt>
<trkpt lat="46.62941100" lon="6.39139200"><ele>848.5</ele><time>2008-06-28T18:36:56Z</time></trkpt>
<trkpt lat="46.62889900" lon="6.39136000"><ele>847.059998</ele><time>2008-06-28T18:37:05Z</time></trkpt>
<trkpt lat="46.62878700" lon="6.39141100"><ele>846.580017</ele><time>2008-06-28T18:37:07Z</time></trkpt>
<trkpt lat="46.62822000" lon="6.39170900"><ele>845.140015</ele><time>2008-06-28T18:37:16Z</time></trkpt>
<trkpt lat="46.62787200" lon="6.39202600"><ele>844.179993</ele><time>2008-06-28T18:37:22Z</time></trkpt>
<trkpt lat="46.62771200" lon="6.39222100"><ele>844.179993</ele><time>2008-06-28T18:37:25Z</time></trkpt>
<trkpt lat="46.62735900" lon="6.39225100"><ele>842.72998</ele><time>2008-06-28T18:37:31Z</time></trkpt>
<trkpt lat="46.62723800" lon="6.39217800"><ele>842.72998</ele><time>2008-06-28T18:37:34Z</time></trkpt>
<trkpt lat="46.62711600" lon="6.39205500"><ele>841.77002</ele><time>2008-06-28T18:37:37Z</time></trkpt>
<trkpt lat="46.62694000" lon="6.39188700"><ele>841.289978</ele><time>2008-06-28T18:37:41Z</time></trkpt>
<trkpt lat="46.62679000" lon="6.39175000"><ele>840.809998</ele><time>2008-06-28T18:37:44Z</time></trkpt>
<trkpt lat="46.62657000" lon="6.39162700"><ele>840.330017</ele><time>2008-06-28T18:37:48Z</time></trkpt>
<trkpt lat="46.62607700" lon="6.39153200"><ele>838.409973</ele><time>2008-06-28T18:37:57Z</time></trkpt>
<trkpt lat="46.62592200" lon="6.39143900"><ele>837.450012</ele><time>2008-06-28T18:37:59Z</time></trkpt>
<trkpt lat="46.62546100" lon="6.39102700"><ele>834.080017</ele><time>2008-06-28T18:38:05Z</time></trkpt>
<trkpt lat="46.62521700" lon="6.39081300"><ele>830.719971</ele><time>2008-06-28T18:38:08Z</time></trkpt>
<trkpt lat="46.62512800" lon="6.39074600"><ele>829.76001</ele><time>2008-06-28T18:38:09Z</time></trkpt>
<trkpt lat="46.62470000" lon="6.39055500"><ele>825.429993</ele><time>2008-06-28T18:38:13Z</time></trkpt>
<trkpt lat="46.62437400" lon="6.39048600"><ele>822.549988</ele><time>2008-06-28T18:38:16Z</time></trkpt>
<trkpt lat="46.62392000" lon="6.39030500"><ele>816.780029</ele><time>2008-06-28T18:38:20Z</time></trkpt>
<trkpt lat="46.62366200" lon="6.39012700"><ele>813.409973</ele><time>2008-06-28T18:38:22Z</time></trkpt>
<trkpt lat="46.62331700" lon="6.38989300"><ele>808.609985</ele><time>2008-06-28T18:38:25Z</time></trkpt>
<trkpt lat="46.62321100" lon="6.38982000"><ele>806.679993</ele><time>2008-06-28T18:38:26Z</time></trkpt>
<trkpt lat="46.62276900" lon="6.38974500"><ele>800.919983</ele><time>2008-06-28T18:38:30Z</time></trkpt>
<trkpt lat="46.62243500" lon="6.38987600"><ele>797.070007</ele><time>2008-06-28T18:38:33Z</time></trkpt>
<trkpt lat="46.62232400" lon="6.38996500"><ele>796.109985</ele><time>2008-06-28T18:38:34Z</time></trkpt>
<trkpt lat="46.62182100" lon="6.39056500"><ele>790.340027</ele><time>2008-06-28T18:38:39Z</time></trkpt>
<trkpt lat="46.62156000" lon="6.39120900"><ele>785.049988</ele><time>2008-06-28T18:38:43Z</time></trkpt>
<trkpt lat="46.62148900" lon="6.39198600"><ele>779.77002</ele><time>2008-06-28T18:38:47Z</time></trkpt>
<trkpt lat="46.62148400" lon="6.39234900"><ele>776.400024</ele><time>2008-06-28T18:38:49Z</time></trkpt>
<trkpt lat="46.62131900" lon="6.39285900"><ele>772.080017</ele><time>2008-06-28T18:38:53Z</time></trkpt>
<trkpt lat="46.62124500" lon="6.39294900"><ele>771.599976</ele><time>2008-06-28T18:38:54Z</time></trkpt>
<trkpt lat="46.62113800" lon="6.39308100"><ele>769.669983</ele><time>2008-06-28T18:38:56Z</time></trkpt>
<trkpt lat="46.62093700" lon="6.39310200"><ele>767.75</ele><time>2008-06-28T18:38:59Z</time></trkpt>
<trkpt lat="46.62065400" lon="6.39287900"><ele>763.900024</ele><time>2008-06-28T18:39:03Z</time></trkpt>
<trkpt lat="46.62050400" lon="6.39269100"><ele>762.460022</ele><time>2008-06-28T18:39:05Z</time></trkpt>
<trkpt lat="46.62002600" lon="6.39182400"><ele>761.02002</ele><time>2008-06-28T18:39:14Z</time></trkpt>
<trkpt lat="46.61984600" lon="6.39159500"><ele>761.5</ele><time>2008-06-28T18:39:18Z</time></trkpt>
<trkpt lat="46.61955700" lon="6.39155800"><ele>760.539978</ele><time>2008-06-28T18:39:24Z</time></trkpt>
<trkpt lat="46.61938700" lon="6.39169800"><ele>759.580017</ele><time>2008-06-28T18:39:27Z</time></trkpt>
<trkpt lat="46.61909400" lon="6.39197400"><ele>756.210022</ele><time>2008-06-28T18:39:31Z</time></trkpt>
<trkpt lat="46.61871900" lon="6.39221400"><ele>752.849976</ele><time>2008-06-28T18:39:35Z</time></trkpt>
<trkpt lat="46.61843900" lon="6.39236500"><ele>750.450012</ele><time>2008-06-28T18:39:38Z</time></trkpt>
<trkpt lat="46.61803200" lon="6.39288000"><ele>745.640015</ele><time>2008-06-28T18:39:43Z</time></trkpt>
<trkpt lat="46.61797700" lon="6.39302000"><ele>744.679993</ele><time>2008-06-28T18:39:44Z</time></trkpt>
<trkpt lat="46.61765400" lon="6.39380200"><ele>740.349976</ele><time>2008-06-28T18:39:49Z</time></trkpt>
<trkpt lat="46.61724500" lon="6.39455200"><ele>736.98999</ele><time>2008-06-28T18:39:54Z</time></trkpt>
<trkpt lat="46.61686600" lon="6.39531600"><ele>733.619995</ele><time>2008-06-28T18:39:59Z</time></trkpt>
<trkpt lat="46.61659100" lon="6.39596400"><ele>729.780029</ele><time>2008-06-28T18:40:03Z</time></trkpt>
<trkpt lat="46.61625500" lon="6.39661500"><ele>726.409973</ele><time>2008-06-28T18:40:07Z</time></trkpt>
<trkpt lat="46.61580100" lon="6.39737700"><ele>722.090027</ele><time>2008-06-28T18:40:12Z</time></trkpt>
<trkpt lat="46.61549900" lon="6.39780900"><ele>718.23999</ele><time>2008-06-28T18:40:15Z</time></trkpt>
<trkpt lat="46.61527200" lon="6.39808900"><ele>715.359985</ele><time>2008-06-28T18:40:17Z</time></trkpt>
<trkpt lat="46.61490500" lon="6.39849300"><ele>710.549988</ele><time>2008-06-28T18:40:20Z</time></trkpt>
<trkpt lat="46.61464200" lon="6.39876700"><ele>708.150024</ele><time>2008-06-28T18:40:22Z</time></trkpt>
<trkpt lat="46.61403800" lon="6.39909200"><ele>703.340027</ele><time>2008-06-28T18:40:26Z</time></trkpt>
<trkpt lat="46.61372700" lon="6.39916200"><ele>700.460022</ele><time>2008-06-28T18:40:28Z</time></trkpt>
<trkpt lat="46.61310700" lon="6.39976300"><ele>695.169983</ele><time>2008-06-28T18:40:33Z</time></trkpt>
<trkpt lat="46.61262100" lon="6.40026200"><ele>691.809998</ele><time>2008-06-28T18:40:37Z</time></trkpt>
<trkpt lat="46.61226100" lon="6.40064800"><ele>688.440002</ele><time>2008-06-28T18:40:40Z</time></trkpt>
<trkpt lat="46.61160500" lon="6.40106400"><ele>685.080017</ele><time>2008-06-28T18:40:45Z</time></trkpt>
<trkpt lat="46.61115200" lon="6.40146600"><ele>683.150024</ele><time>2008-06-28T18:40:49Z</time></trkpt>
<trkpt lat="46.61070400" lon="6.40202500"><ele>680.75</ele><time>2008-06-28T18:40:54Z</time></trkpt>
<trkpt lat="46.61039400" lon="6.40273200"><ele>678.349976</ele><time>2008-06-28T18:41:03Z</time></trkpt>
<trkpt lat="46.60979900" lon="6.40397100"><ele>679.789978</ele><time>2008-06-28T18:41:17Z</time></trkpt>
<trkpt lat="46.60936900" lon="6.40460100"><ele>682.669983</ele><time>2008-06-28T18:41:26Z</time></trkpt>
<trkpt lat="46.60900500" lon="6.40508000"><ele>686.039978</ele><time>2008-06-28T18:41:34Z</time></trkpt>
<trkpt lat="46.60877200" lon="6.40528700"><ele>687</ele><time>2008-06-28T18:41:40Z</time></trkpt>
<trkpt lat="46.60831400" lon="6.40541300"><ele>688.440002</ele><time>2008-06-28T18:41:53Z</time></trkpt>
<trkpt lat="46.60831000" lon="6.40541900"><ele>688.440002</ele><time>2008-06-28T18:42:05Z</time></trkpt>
<trkpt lat="46.60808500" lon="6.40542400"><ele>687.47998</ele><time>2008-06-28T18:43:00Z</time></trkpt>
<trkpt lat="46.60789800" lon="6.40543500"><ele>687</ele><time>2008-06-28T18:43:04Z</time></trkpt>
<trkpt lat="46.60737000" lon="6.40563700"><ele>684.599976</ele><time>2008-06-28T18:43:12Z</time></trkpt>
<trkpt lat="46.60704700" lon="6.40604600"><ele>682.669983</ele><time>2008-06-28T18:43:17Z</time></trkpt>
<trkpt lat="46.60677600" lon="6.40682300"><ele>678.830017</ele><time>2008-06-28T18:43:23Z</time></trkpt>
<trkpt lat="46.60645500" lon="6.40748700"><ele>674.97998</ele><time>2008-06-28T18:43:28Z</time></trkpt>
<trkpt lat="46.60638600" lon="6.40760400"><ele>674.97998</ele><time>2008-06-28T18:43:29Z</time></trkpt>
<trkpt lat="46.60558000" lon="6.40848500"><ele>674.5</ele><time>2008-06-28T18:43:39Z</time></trkpt>
<trkpt lat="46.60537700" lon="6.40868200"><ele>674.97998</ele><time>2008-06-28T18:43:42Z</time></trkpt>
<trkpt lat="46.60503400" lon="6.40895400"><ele>675.460022</ele><time>2008-06-28T18:43:48Z</time></trkpt>
<trkpt lat="46.60501000" lon="6.40941400"><ele>675.940002</ele><time>2008-06-28T18:43:53Z</time></trkpt>
<trkpt lat="46.60546000" lon="6.41120500"><ele>674.02002</ele><time>2008-06-28T18:44:10Z</time></trkpt>
<trkpt lat="46.60552800" lon="6.41254000"><ele>672.099976</ele><time>2008-06-28T18:44:22Z</time></trkpt>
<trkpt lat="46.60538700" lon="6.41418000"><ele>669.219971</ele><time>2008-06-28T18:44:35Z</time></trkpt>
<trkpt lat="46.60541900" lon="6.41654500"><ele>667.289978</ele><time>2008-06-28T18:44:53Z</time></trkpt>
<trkpt lat="46.60549900" lon="6.41893200"><ele>664.890015</ele><time>2008-06-28T18:45:12Z</time></trkpt>
<trkpt lat="46.60586600" lon="6.42059400"><ele>662.48999</ele><time>2008-06-28T18:45:26Z</time></trkpt>
<trkpt lat="46.60590500" lon="6.42083800"><ele>662.01001</ele><time>2008-06-28T18:45:28Z</time></trkpt>
<trkpt lat="46.60594700" lon="6.42137100"><ele>660.080017</ele><time>2008-06-28T18:45:32Z</time></trkpt>
<trkpt lat="46.60595400" lon="6.42149600"><ele>659.119995</ele><time>2008-06-28T18:45:33Z</time></trkpt>
<trkpt lat="46.60587800" lon="6.42195300"><ele>656.23999</ele><time>2008-06-28T18:45:37Z</time></trkpt>
<trkpt lat="46.60564300" lon="6.42236000"><ele>653.349976</ele><time>2008-06-28T18:45:41Z</time></trkpt>
<trkpt lat="46.60542000" lon="6.42261400"><ele>650.950012</ele><time>2008-06-28T18:45:44Z</time></trkpt>
<trkpt lat="46.60527400" lon="6.42308600"><ele>648.549988</ele><time>2008-06-28T18:45:48Z</time></trkpt>
<trkpt lat="46.60525300" lon="6.42373700"><ele>644.219971</ele><time>2008-06-28T18:45:54Z</time></trkpt>
<trkpt lat="46.60482800" lon="6.42422100"><ele>641.340027</ele><time>2008-06-28T18:46:03Z</time></trkpt>
<trkpt lat="46.60458700" lon="6.42482000"><ele>640.380005</ele><time>2008-06-28T18:46:10Z</time></trkpt>
<trkpt lat="46.60458000" lon="6.42535200"><ele>640.380005</ele><time>2008-06-28T18:46:15Z</time></trkpt>
<trkpt lat="46.60455500" lon="6.42574200"><ele>640.380005</ele><time>2008-06-28T18:46:19Z</time></trkpt>
<trkpt lat="46.60445200" lon="6.42611900"><ele>641.820007</ele><time>2008-06-28T18:46:23Z</time></trkpt>
<trkpt lat="46.60432400" lon="6.42663100"><ele>645.659973</ele><time>2008-06-28T18:46:30Z</time></trkpt>
<trkpt lat="46.60432100" lon="6.42687700"><ele>647.590027</ele><time>2008-06-28T18:46:34Z</time></trkpt>
<trkpt lat="46.60434800" lon="6.42705100"><ele>648.549988</ele><time>2008-06-28T18:46:37Z</time></trkpt>
<trkpt lat="46.60436800" lon="6.42709400"><ele>649.030029</ele><time>2008-06-28T18:46:38Z</time></trkpt>
<trkpt lat="46.60451200" lon="6.42749400"><ele>651.429993</ele><time>2008-06-28T18:46:44Z</time></trkpt>
<trkpt lat="46.60455600" lon="6.42811000"><ele>654.309998</ele><time>2008-06-28T18:46:55Z</time></trkpt>
<trkpt lat="46.60473900" lon="6.42830300"><ele>653.830017</ele><time>2008-06-28T18:47:00Z</time></trkpt>
<trkpt lat="46.60534700" lon="6.42907200"><ele>652.390015</ele><time>2008-06-28T18:47:13Z</time></trkpt>
<trkpt lat="46.60617400" lon="6.43001600"><ele>650.469971</ele><time>2008-06-28T18:47:28Z</time></trkpt>
<trkpt lat="46.60649100" lon="6.43062000"><ele>650.469971</ele><time>2008-06-28T18:47:36Z</time></trkpt>
<trkpt lat="46.60658300" lon="6.43089100"><ele>649.51001</ele><time>2008-06-28T18:47:39Z</time></trkpt>
<trkpt lat="46.60666400" lon="6.43129100"><ele>648.549988</ele><time>2008-06-28T18:47:43Z</time></trkpt>
<trkpt lat="46.60669800" lon="6.43170000"><ele>648.549988</ele><time>2008-06-28T18:47:47Z</time></trkpt>
<trkpt lat="46.60670200" lon="6.43189300"><ele>648.549988</ele><time>2008-06-28T18:47:49Z</time></trkpt>
<trkpt lat="46.60664100" lon="6.43243400"><ele>649.51001</ele><time>2008-06-28T18:47:55Z</time></trkpt>
<trkpt lat="46.60668100" lon="6.43281700"><ele>650.469971</ele><time>2008-06-28T18:48:00Z</time></trkpt>
<trkpt lat="46.60666800" lon="6.43299000"><ele>650.950012</ele><time>2008-06-28T18:48:02Z</time></trkpt>
<trkpt lat="46.60662200" lon="6.43329100"><ele>651.909973</ele><time>2008-06-28T18:48:06Z</time></trkpt>
<trkpt lat="46.60637100" lon="6.43396300"><ele>652.390015</ele><time>2008-06-28T18:48:16Z</time></trkpt>
<trkpt lat="46.60630100" lon="6.43412300"><ele>652.390015</ele><time>2008-06-28T18:48:18Z</time></trkpt>
<trkpt lat="46.60618300" lon="6.43468400"><ele>650.950012</ele><time>2008-06-28T18:48:24Z</time></trkpt>
<trkpt lat="46.60588800" lon="6.43562100"><ele>650.469971</ele><time>2008-06-28T18:48:34Z</time></trkpt>
<trkpt lat="46.60566200" lon="6.43625700"><ele>649.030029</ele><time>2008-06-28T18:48:42Z</time></trkpt>
<trkpt lat="46.60543000" lon="6.43679500"><ele>647.099976</ele><time>2008-06-28T18:48:48Z</time></trkpt>
<trkpt lat="46.60533400" lon="6.43701000"><ele>646.619995</ele><time>2008-06-28T18:48:50Z</time></trkpt>
<trkpt lat="46.60501700" lon="6.43815100"><ele>646.140015</ele><time>2008-06-28T18:49:00Z</time></trkpt>
<trkpt lat="46.60487600" lon="6.43859900"><ele>645.659973</ele><time>2008-06-28T18:49:04Z</time></trkpt>
<trkpt lat="46.60459100" lon="6.43922000"><ele>644.700012</ele><time>2008-06-28T18:49:09Z</time></trkpt>
<trkpt lat="46.60434800" lon="6.44017800"><ele>646.140015</ele><time>2008-06-28T18:49:17Z</time></trkpt>
<trkpt lat="46.60425600" lon="6.44053100"><ele>645.179993</ele><time>2008-06-28T18:49:20Z</time></trkpt>
<trkpt lat="46.60414100" lon="6.44086900"><ele>644.219971</ele><time>2008-06-28T18:49:23Z</time></trkpt>
<trkpt lat="46.60404900" lon="6.44152700"><ele>642.780029</ele><time>2008-06-28T18:49:28Z</time></trkpt>
<trkpt lat="46.60409900" lon="6.44259100"><ele>642.780029</ele><time>2008-06-28T18:49:36Z</time></trkpt>
<trkpt lat="46.60403300" lon="6.44304200"><ele>641.340027</ele><time>2008-06-28T18:49:40Z</time></trkpt>
<trkpt lat="46.60379900" lon="6.44366900"><ele>636.530029</ele><time>2008-06-28T18:49:45Z</time></trkpt>
<trkpt lat="46.60361800" lon="6.44414400"><ele>631.719971</ele><time>2008-06-28T18:49:48Z</time></trkpt>
<trkpt lat="46.60351700" lon="6.44451500"><ele>628.840027</ele><time>2008-06-28T18:49:50Z</time></trkpt>
<trkpt lat="46.60341000" lon="6.44492400"><ele>624.51001</ele><time>2008-06-28T18:49:52Z</time></trkpt>
<trkpt lat="46.60323800" lon="6.44556200"><ele>620.669983</ele><time>2008-06-28T18:49:55Z</time></trkpt>
<trkpt lat="46.60315000" lon="6.44598600"><ele>616.820007</ele><time>2008-06-28T18:49:57Z</time></trkpt>
<trkpt lat="46.60305200" lon="6.44649400"><ele>612.97998</ele><time>2008-06-28T18:50:00Z</time></trkpt>
<trkpt lat="46.60296500" lon="6.44691800"><ele>610.570007</ele><time>2008-06-28T18:50:03Z</time></trkpt>
<trkpt lat="46.60271600" lon="6.44768300"><ele>607.690002</ele><time>2008-06-28T18:50:09Z</time></trkpt>
<trkpt lat="46.60264600" lon="6.44821400"><ele>605.77002</ele><time>2008-06-28T18:50:14Z</time></trkpt>
<trkpt lat="46.60257100" lon="6.44862400"><ele>605.77002</ele><time>2008-06-28T18:50:19Z</time></trkpt>
<trkpt lat="46.60248400" lon="6.44870700"><ele>606.25</ele><time>2008-06-28T18:50:21Z</time></trkpt>
<trkpt lat="46.60235700" lon="6.44891800"><ele>608.169983</ele><time>2008-06-28T18:50:25Z</time></trkpt>
<trkpt lat="46.60211600" lon="6.44935200"><ele>611.539978</ele><time>2008-06-28T18:50:32Z</time></trkpt>
<trkpt lat="46.60203800" lon="6.44948000"><ele>612.02002</ele><time>2008-06-28T18:50:34Z</time></trkpt>
<trkpt lat="46.60183600" lon="6.44983000"><ele>613.460022</ele><time>2008-06-28T18:50:39Z</time></trkpt>
<trkpt lat="46.60153600" lon="6.45074500"><ele>612.97998</ele><time>2008-06-28T18:50:49Z</time></trkpt>
<trkpt lat="46.60154800" lon="6.45137800"><ele>612.97998</ele><time>2008-06-28T18:50:55Z</time></trkpt>
<trkpt lat="46.60161100" lon="6.45174100"><ele>613.460022</ele><time>2008-06-28T18:50:59Z</time></trkpt>
<trkpt lat="46.60155900" lon="6.45210400"><ele>612.97998</ele><time>2008-06-28T18:51:03Z</time></trkpt>
<trkpt lat="46.60129100" lon="6.45247000"><ele>612.5</ele><time>2008-06-28T18:51:08Z</time></trkpt>
<trkpt lat="46.60001400" lon="6.45346200"><ele>609.609985</ele><time>2008-06-28T18:51:25Z</time></trkpt>
<trkpt lat="46.59875300" lon="6.45399800"><ele>610.090027</ele><time>2008-06-28T18:51:43Z</time></trkpt>
<trkpt lat="46.59755000" lon="6.45452800"><ele>609.609985</ele><time>2008-06-28T18:52:01Z</time></trkpt>
<trkpt lat="46.59646800" lon="6.45486700"><ele>610.570007</ele><time>2008-06-28T18:52:17Z</time></trkpt>
<trkpt lat="46.59592500" lon="6.45482700"><ele>610.570007</ele><time>2008-06-28T18:52:25Z</time></trkpt>
<trkpt lat="46.59526300" lon="6.45487600"><ele>610.090027</ele><time>2008-06-28T18:52:35Z</time></trkpt>
<trkpt lat="46.59460400" lon="6.45533200"><ele>606.25</ele><time>2008-06-28T18:52:45Z</time></trkpt>
<trkpt lat="46.59443200" lon="6.45537600"><ele>605.289978</ele><time>2008-06-28T18:52:47Z</time></trkpt>
<trkpt lat="46.59418300" lon="6.45551800"><ele>603.359985</ele><time>2008-06-28T18:52:50Z</time></trkpt>
<trkpt lat="46.59403500" lon="6.45555800"><ele>602.400024</ele><time>2008-06-28T18:52:52Z</time></trkpt>
<trkpt lat="46.59373000" lon="6.45554500"><ele>600.960022</ele><time>2008-06-28T18:52:55Z</time></trkpt>
<trkpt lat="46.59318700" lon="6.45544800"><ele>600.47998</ele><time>2008-06-28T18:53:02Z</time></trkpt>
<trkpt lat="46.59297200" lon="6.45585800"><ele>600</ele><time>2008-06-28T18:53:08Z</time></trkpt>
<trkpt lat="46.59295300" lon="6.45602600"><ele>600</ele><time>2008-06-28T18:53:10Z</time></trkpt>
<trkpt lat="46.59298200" lon="6.45642600"><ele>600.47998</ele><time>2008-06-28T18:53:15Z</time></trkpt>
<trkpt lat="46.59301700" lon="6.45661700"><ele>600.960022</ele><time>2008-06-28T18:53:17Z</time></trkpt>
<trkpt lat="46.59303600" lon="6.45702400"><ele>602.400024</ele><time>2008-06-28T18:53:23Z</time></trkpt>
<trkpt lat="46.59300200" lon="6.45725700"><ele>602.880005</ele><time>2008-06-28T18:53:26Z</time></trkpt>
<trkpt lat="46.59283700" lon="6.45755700"><ele>602.400024</ele><time>2008-06-28T18:53:31Z</time></trkpt>
<trkpt lat="46.59268900" lon="6.45769000"><ele>601.919983</ele><time>2008-06-28T18:53:34Z</time></trkpt>
<trkpt lat="46.59228700" lon="6.45787000"><ele>600.960022</ele><time>2008-06-28T18:53:41Z</time></trkpt>
<trkpt lat="46.59191800" lon="6.45809300"><ele>600.47998</ele><time>2008-06-28T18:53:46Z</time></trkpt>
<trkpt lat="46.59102700" lon="6.45879100"><ele>602.880005</ele><time>2008-06-28T18:53:59Z</time></trkpt>
<trkpt lat="46.59050300" lon="6.45925300"><ele>605.77002</ele><time>2008-06-28T18:54:08Z</time></trkpt>
<trkpt lat="46.58996100" lon="6.45984600"><ele>607.210022</ele><time>2008-06-28T18:54:21Z</time></trkpt>
<trkpt lat="46.58950100" lon="6.46056100"><ele>606.72998</ele><time>2008-06-28T18:54:32Z</time></trkpt>
<trkpt lat="46.58909500" lon="6.46085100"><ele>606.25</ele><time>2008-06-28T18:54:39Z</time></trkpt>
<trkpt lat="46.58817400" lon="6.46109000"><ele>608.169983</ele><time>2008-06-28T18:54:54Z</time></trkpt>
<trkpt lat="46.58815200" lon="6.46112500"><ele>608.169983</ele><time>2008-06-28T18:54:55Z</time></trkpt>
<trkpt lat="46.58823400" lon="6.46138700"><ele>609.130005</ele><time>2008-06-28T18:55:00Z</time></trkpt>
<trkpt lat="46.58882100" lon="6.46206800"><ele>610.090027</ele><time>2008-06-28T18:55:13Z</time></trkpt>
<trkpt lat="46.58876100" lon="6.46223600"><ele>609.609985</ele><time>2008-06-28T18:55:18Z</time></trkpt>
<trkpt lat="46.58796600" lon="6.46220100"><ele>609.130005</ele><time>2008-06-28T18:55:32Z</time></trkpt>
<trkpt lat="46.58784200" lon="6.46219300"><ele>609.609985</ele><time>2008-06-28T18:55:34Z</time></trkpt>
<trkpt lat="46.58772400" lon="6.46253100"><ele>607.690002</ele><time>2008-06-28T18:55:39Z</time></trkpt>
<trkpt lat="46.58773000" lon="6.46276900"><ele>606.72998</ele><time>2008-06-28T18:55:41Z</time></trkpt>
<trkpt lat="46.58778200" lon="6.46345300"><ele>602.400024</ele><time>2008-06-28T18:55:46Z</time></trkpt>
<trkpt lat="46.58779500" lon="6.46394900"><ele>599.039978</ele><time>2008-06-28T18:55:49Z</time></trkpt>
<trkpt lat="46.58782200" lon="6.46447600"><ele>595.669983</ele><time>2008-06-28T18:55:52Z</time></trkpt>
<trkpt lat="46.58785700" lon="6.46509900"><ele>592.309998</ele><time>2008-06-28T18:55:56Z</time></trkpt>
<trkpt lat="46.58786600" lon="6.46527300"><ele>591.349976</ele><time>2008-06-28T18:55:58Z</time></trkpt>
<trkpt lat="46.58805800" lon="6.46532400"><ele>591.349976</ele><time>2008-06-28T18:56:04Z</time></trkpt>
<trkpt lat="46.58905600" lon="6.46490700"><ele>591.830017</ele><time>2008-06-28T18:56:21Z</time></trkpt>
<trkpt lat="46.58923900" lon="6.46488000"><ele>591.830017</ele><time>2008-06-28T18:56:24Z</time></trkpt>
<trkpt lat="46.58954900" lon="6.46496600"><ele>592.309998</ele><time>2008-06-28T18:56:29Z</time></trkpt>
<trkpt lat="46.59046700" lon="6.46549900"><ele>592.789978</ele><time>2008-06-28T18:56:44Z</time></trkpt>
<trkpt lat="46.59065400" lon="6.46559700"><ele>592.789978</ele><time>2008-06-28T18:56:47Z</time></trkpt>
<trkpt lat="46.59076600" lon="6.46596900"><ele>592.789978</ele><time>2008-06-28T18:56:52Z</time></trkpt>
<trkpt lat="46.59081900" lon="6.46625000"><ele>593.27002</ele><time>2008-06-28T18:56:55Z</time></trkpt>
<trkpt lat="46.59084800" lon="6.46676400"><ele>594.22998</ele><time>2008-06-28T18:57:01Z</time></trkpt>
<trkpt lat="46.59075600" lon="6.46790800"><ele>593.27002</ele><time>2008-06-28T18:57:14Z</time></trkpt>
<trkpt lat="46.59074400" lon="6.46811700"><ele>592.309998</ele><time>2008-06-28T18:57:16Z</time></trkpt>
<trkpt lat="46.59067200" lon="6.46865600"><ele>588.460022</ele><time>2008-06-28T18:57:20Z</time></trkpt>
<trkpt lat="46.59056800" lon="6.46914100"><ele>584.619995</ele><time>2008-06-28T18:57:23Z</time></trkpt>
<trkpt lat="46.59048400" lon="6.46949800"><ele>581.25</ele><time>2008-06-28T18:57:25Z</time></trkpt>
<trkpt lat="46.59036000" lon="6.47008100"><ele>577.409973</ele><time>2008-06-28T18:57:28Z</time></trkpt>
<trkpt lat="46.59023400" lon="6.47067700"><ele>574.530029</ele><time>2008-06-28T18:57:31Z</time></trkpt>
<trkpt lat="46.59012100" lon="6.47123900"><ele>573.080017</ele><time>2008-06-28T18:57:34Z</time></trkpt>
<trkpt lat="46.59006200" lon="6.47149400"><ele>572.119995</ele><time>2008-06-28T18:57:36Z</time></trkpt>
<trkpt lat="46.58987200" lon="6.47171500"><ele>571.640015</ele><time>2008-06-28T18:57:40Z</time></trkpt>
<trkpt lat="46.58926600" lon="6.47191000"><ele>571.640015</ele><time>2008-06-28T18:57:49Z</time></trkpt>
<trkpt lat="46.58817900" lon="6.47225500"><ele>570.200012</ele><time>2008-06-28T18:58:03Z</time></trkpt>
<trkpt lat="46.58721200" lon="6.47259000"><ele>571.159973</ele><time>2008-06-28T18:58:16Z</time></trkpt>
<trkpt lat="46.58653500" lon="6.47283700"><ele>570.679993</ele><time>2008-06-28T18:58:26Z</time></trkpt>
<trkpt lat="46.58617900" lon="6.47281500"><ele>570.200012</ele><time>2008-06-28T18:58:31Z</time></trkpt>
<trkpt lat="46.58607100" lon="6.47306100"><ele>568.76001</ele><time>2008-06-28T18:58:35Z</time></trkpt>
<trkpt lat="46.58628000" lon="6.47462000"><ele>567.799988</ele><time>2008-06-28T18:58:49Z</time></trkpt>
<trkpt lat="46.58641500" lon="6.47594200"><ele>564.429993</ele><time>2008-06-28T18:59:00Z</time></trkpt>
<trkpt lat="46.58643800" lon="6.47621400"><ele>563.469971</ele><time>2008-06-28T18:59:02Z</time></trkpt>
<trkpt lat="46.58662200" lon="6.47799100"><ele>561.070007</ele><time>2008-06-28T18:59:16Z</time></trkpt>
<trkpt lat="46.58657200" lon="6.47922000"><ele>558.179993</ele><time>2008-06-28T18:59:25Z</time></trkpt>
<trkpt lat="46.58655100" lon="6.47950500"><ele>557.219971</ele><time>2008-06-28T18:59:27Z</time></trkpt>
<trkpt lat="46.58651400" lon="6.47991300"><ele>555.780029</ele><time>2008-06-28T18:59:30Z</time></trkpt>
<trkpt lat="46.58602600" lon="6.48125400"><ele>552.900024</ele><time>2008-06-28T18:59:41Z</time></trkpt>
<trkpt lat="46.58599100" lon="6.48134300"><ele>552.900024</ele><time>2008-06-28T18:59:42Z</time></trkpt>
<trkpt lat="46.58616200" lon="6.48152700"><ele>551.450012</ele><time>2008-06-28T18:59:48Z</time></trkpt>
<trkpt lat="46.58631100" lon="6.48178600"><ele>552.409973</ele><time>2008-06-28T18:59:54Z</time></trkpt>
<trkpt lat="46.58617800" lon="6.48241900"><ele>553.380005</ele><time>2008-06-28T19:00:01Z</time></trkpt>
<trkpt lat="46.58586400" lon="6.48396900"><ele>555.780029</ele><time>2008-06-28T19:00:18Z</time></trkpt>
<trkpt lat="46.58566500" lon="6.48497100"><ele>559.140015</ele><time>2008-06-28T19:00:31Z</time></trkpt>
<trkpt lat="46.58531000" lon="6.48618800"><ele>556.26001</ele><time>2008-06-28T19:00:45Z</time></trkpt>
<trkpt lat="46.58501800" lon="6.48710800"><ele>552.900024</ele><time>2008-06-28T19:00:53Z</time></trkpt>
<trkpt lat="46.58477600" lon="6.48765800"><ele>549.530029</ele><time>2008-06-28T19:00:58Z</time></trkpt>
<trkpt lat="46.58483200" lon="6.48791000"><ele>549.049988</ele><time>2008-06-28T19:01:03Z</time></trkpt>
<trkpt lat="46.58551600" lon="6.48831400"><ele>552.409973</ele><time>2008-06-28T19:01:18Z</time></trkpt>
<trkpt lat="46.58627100" lon="6.48861600"><ele>553.380005</ele><time>2008-06-28T19:01:33Z</time></trkpt>
<trkpt lat="46.58701200" lon="6.48918100"><ele>550.969971</ele><time>2008-06-28T19:01:45Z</time></trkpt>
<trkpt lat="46.58754100" lon="6.48942500"><ele>552.409973</ele><time>2008-06-28T19:01:53Z</time></trkpt>
<trkpt lat="46.58763600" lon="6.48949600"><ele>552.900024</ele><time>2008-06-28T19:01:55Z</time></trkpt>
<trkpt lat="46.58774300" lon="6.48980400"><ele>554.820007</ele><time>2008-06-28T19:02:01Z</time></trkpt>
<trkpt lat="46.58762500" lon="6.49004500"><ele>554.340027</ele><time>2008-06-28T19:02:05Z</time></trkpt>
<trkpt lat="46.58750900" lon="6.49101300"><ele>552.409973</ele><time>2008-06-28T19:02:15Z</time></trkpt>
<trkpt lat="46.58750200" lon="6.49110400"><ele>552.409973</ele><time>2008-06-28T19:02:16Z</time></trkpt>
<trkpt lat="46.58732200" lon="6.49161200"><ele>551.450012</ele><time>2008-06-28T19:02:21Z</time></trkpt>
<trkpt lat="46.58724200" lon="6.49178300"><ele>550.969971</ele><time>2008-06-28T19:02:23Z</time></trkpt>
<trkpt lat="46.58712400" lon="6.49196200"><ele>550.969971</ele><time>2008-06-28T19:02:25Z</time></trkpt>
<trkpt lat="46.58698700" lon="6.49229900"><ele>550.969971</ele><time>2008-06-28T19:02:29Z</time></trkpt>
<trkpt lat="46.58697100" lon="6.49250800"><ele>550.969971</ele><time>2008-06-28T19:02:31Z</time></trkpt>
<trkpt lat="46.58706300" lon="6.49310700"><ele>550.969971</ele><time>2008-06-28T19:02:37Z</time></trkpt>
<trkpt lat="46.58701700" lon="6.49348800"><ele>550.969971</ele><time>2008-06-28T19:02:41Z</time></trkpt>
<trkpt lat="46.58687000" lon="6.49405600"><ele>549.530029</ele><time>2008-06-28T19:02:47Z</time></trkpt>
<trkpt lat="46.58653400" lon="6.49442200"><ele>548.090027</ele><time>2008-06-28T19:02:53Z</time></trkpt>
<trkpt lat="46.58632600" lon="6.49449500"><ele>547.130005</ele><time>2008-06-28T19:02:56Z</time></trkpt>
<trkpt lat="46.58609300" lon="6.49486000"><ele>545.690002</ele><time>2008-06-28T19:03:01Z</time></trkpt>
<trkpt lat="46.58580300" lon="6.49670900"><ele>543.76001</ele><time>2008-06-28T19:03:15Z</time></trkpt>
<trkpt lat="46.58568000" lon="6.49792300"><ele>546.650024</ele><time>2008-06-28T19:03:25Z</time></trkpt>
<trkpt lat="46.58567500" lon="6.49803100"><ele>547.130005</ele><time>2008-06-28T19:03:26Z</time></trkpt>
<trkpt lat="46.58566600" lon="6.49892700"><ele>550.48999</ele><time>2008-06-28T19:03:35Z</time></trkpt>
<trkpt lat="46.58565700" lon="6.49940300"><ele>551.929993</ele><time>2008-06-28T19:03:40Z</time></trkpt>
<trkpt lat="46.58560700" lon="6.50065200"><ele>548.090027</ele><time>2008-06-28T19:03:52Z</time></trkpt>
<trkpt lat="46.58557100" lon="6.50095000"><ele>546.169983</ele><time>2008-06-28T19:03:54Z</time></trkpt>
<trkpt lat="46.58537000" lon="6.50156900"><ele>541.359985</ele><time>2008-06-28T19:03:58Z</time></trkpt>
<trkpt lat="46.58518400" lon="6.50202500"><ele>539.919983</ele><time>2008-06-28T19:04:01Z</time></trkpt>
<trkpt lat="46.58484100" lon="6.50321200"><ele>537.030029</ele><time>2008-06-28T19:04:09Z</time></trkpt>
<trkpt lat="46.58460300" lon="6.50377500"><ele>535.590027</ele><time>2008-06-28T19:04:14Z</time></trkpt>
<trkpt lat="46.58455200" lon="6.50402900"><ele>534.150024</ele><time>2008-06-28T19:04:16Z</time></trkpt>
<trkpt lat="46.58464900" lon="6.50456900"><ele>530.299988</ele><time>2008-06-28T19:04:20Z</time></trkpt>
<trkpt lat="46.58481400" lon="6.50494900"><ele>527.419983</ele><time>2008-06-28T19:04:23Z</time></trkpt>
<trkpt lat="46.58487700" lon="6.50538500"><ele>524.539978</ele><time>2008-06-28T19:04:27Z</time></trkpt>
<trkpt lat="46.58480200" lon="6.50573700"><ele>522.609985</ele><time>2008-06-28T19:04:31Z</time></trkpt>
<trkpt lat="46.58475400" lon="6.50588800"><ele>522.130005</ele><time>2008-06-28T19:04:34Z</time></trkpt>
<trkpt lat="46.58461400" lon="6.50586000"><ele>522.130005</ele><time>2008-06-28T19:04:41Z</time></trkpt>
<trkpt lat="46.58460700" lon="6.50582700"><ele>519.72998</ele><time>2008-06-28T19:10:54Z</time></trkpt>
<trkpt lat="46.58463200" lon="6.50592600"><ele>518.77002</ele><time>2008-06-28T19:13:36Z</time></trkpt>
<trkpt lat="46.58463200" lon="6.50607300"><ele>518.77002</ele><time>2008-06-28T19:13:49Z</time></trkpt>
</trkseg></trk></gpx>